<?xml version='1.0' encoding='UTF-8'?><gpx version="1.1" creator="JPX - https://github.com/jenetics/jpx" xmlns="http://www.topografix.com/GPX/1/1"><trk><trkseg><trkpt lat="37.0299386" lon="15.0488997"><ele>477.0</ele><time>2026-03-28T09:00:39.508Z</time></trkpt><trkpt lat="37.0299547" lon="15.0487655"><ele>477.0</ele><time>2026-03-28T09:00:41.508Z</time></trkpt><trkpt lat="37.0299651" lon="15.0486822"><ele>477.0</ele><time>2026-03-28T09:00:42.508Z</time></trkpt><trkpt lat="37.0299789" lon="15.0485806"><ele>477.0</ele><time>2026-03-28T09:00:43.508Z</time></trkpt><trkpt lat="37.0299955" lon="15.0484665"><ele>477.0</ele><time>2026-03-28T09:00:44.507Z</time></trkpt><trkpt lat="37.0300108" lon="15.0483586"><ele>477.0</ele><time>2026-03-28T09:00:45.509Z</time></trkpt><trkpt lat="37.0300306" lon="15.0482381"><ele>472.0</ele><time>2026-03-28T09:00:46.507Z</time></trkpt><trkpt lat="37.0300519" lon="15.0481056"><ele>467.0</ele><time>2026-03-28T09:00:47.507Z</time></trkpt><trkpt lat="37.0300765" lon="15.0479644"><ele>462.0</ele><time>2026-03-28T09:00:48.508Z</time></trkpt><trkpt lat="37.0301027" lon="15.0478113"><ele>457.0</ele><time>2026-03-28T09:00:49.507Z</time></trkpt><trkpt lat="37.0301263" lon="15.0476603"><ele>457.0</ele><time>2026-03-28T09:00:50.508Z</time></trkpt><trkpt lat="37.0301438" lon="15.0475145"><ele>457.0</ele><time>2026-03-28T09:00:51.508Z</time></trkpt><trkpt lat="37.0301655" lon="15.0473638"><ele>457.0</ele><time>2026-03-28T09:00:52.507Z</time></trkpt><trkpt lat="37.0301929" lon="15.0472003"><ele>457.0</ele><time>2026-03-28T09:00:53.507Z</time></trkpt><trkpt lat="37.0302178" lon="15.0470485"><ele>459.25</ele><time>2026-03-28T09:00:54.509Z</time></trkpt><trkpt lat="37.0302443" lon="15.0469016"><ele>461.5</ele><time>2026-03-28T09:00:55.508Z</time></trkpt><trkpt lat="37.0302708" lon="15.0467492"><ele>463.75</ele><time>2026-03-28T09:00:56.508Z</time></trkpt><trkpt lat="37.0302989" lon="15.0465894"><ele>466.0</ele><time>2026-03-28T09:00:57.506Z</time></trkpt><trkpt lat="37.0303261" lon="15.0464406"><ele>466.5</ele><time>2026-03-28T09:00:58.507Z</time></trkpt><trkpt lat="37.0303563" lon="15.0462876"><ele>467.0</ele><time>2026-03-28T09:00:59.508Z</time></trkpt><trkpt lat="37.0303823" lon="15.0461311"><ele>467.5</ele><time>2026-03-28T09:01:00.509Z</time></trkpt><trkpt lat="37.0304101" lon="15.0459694"><ele>468.0</ele><time>2026-03-28T09:01:01.508Z</time></trkpt><trkpt lat="37.0304371" lon="15.0458097"><ele>467.5</ele><time>2026-03-28T09:01:02.509Z</time></trkpt><trkpt lat="37.0304615" lon="15.0456654"><ele>467.0</ele><time>2026-03-28T09:01:03.507Z</time></trkpt><trkpt lat="37.0304864" lon="15.045527"><ele>466.5</ele><time>2026-03-28T09:01:04.508Z</time></trkpt><trkpt lat="37.0305057" lon="15.0453843"><ele>466.0</ele><time>2026-03-28T09:01:05.507Z</time></trkpt><trkpt lat="37.0305037" lon="15.0452483"><ele>466.0</ele><time>2026-03-28T09:01:06.508Z</time></trkpt><trkpt lat="37.0304814" lon="15.0451115"><ele>466.0</ele><time>2026-03-28T09:01:07.507Z</time></trkpt><trkpt lat="37.03044" lon="15.0449783"><ele>466.0</ele><time>2026-03-28T09:01:08.509Z</time></trkpt><trkpt lat="37.0303682" lon="15.0448558"><ele>466.0</ele><time>2026-03-28T09:01:09.506Z</time></trkpt><trkpt lat="37.0302758" lon="15.0447439"><ele>465.0</ele><time>2026-03-28T09:01:10.509Z</time></trkpt><trkpt lat="37.0301736" lon="15.0446279"><ele>464.0</ele><time>2026-03-28T09:01:11.508Z</time></trkpt><trkpt lat="37.0300656" lon="15.0445015"><ele>463.0</ele><time>2026-03-28T09:01:12.508Z</time></trkpt><trkpt lat="37.0299526" lon="15.0443748"><ele>462.0</ele><time>2026-03-28T09:01:13.508Z</time></trkpt><trkpt lat="37.0298474" lon="15.0442523"><ele>465.5</ele><time>2026-03-28T09:01:14.509Z</time></trkpt><trkpt lat="37.0297504" lon="15.0441347"><ele>469.0</ele><time>2026-03-28T09:01:15.507Z</time></trkpt><trkpt lat="37.0296634" lon="15.0440132"><ele>472.5</ele><time>2026-03-28T09:01:16.507Z</time></trkpt><trkpt lat="37.0295899" lon="15.0438761"><ele>476.0</ele><time>2026-03-28T09:01:17.507Z</time></trkpt><trkpt lat="37.0295433" lon="15.0437355"><ele>476.75</ele><time>2026-03-28T09:01:18.508Z</time></trkpt><trkpt lat="37.0295195" lon="15.0435898"><ele>477.5</ele><time>2026-03-28T09:01:19.506Z</time></trkpt><trkpt lat="37.0295145" lon="15.0434396"><ele>478.25</ele><time>2026-03-28T09:01:20.507Z</time></trkpt><trkpt lat="37.0295158" lon="15.0432823"><ele>479.0</ele><time>2026-03-28T09:01:21.507Z</time></trkpt><trkpt lat="37.0295217" lon="15.0431135"><ele>479.75</ele><time>2026-03-28T09:01:22.507Z</time></trkpt><trkpt lat="37.0295312" lon="15.0429548"><ele>480.5</ele><time>2026-03-28T09:01:23.509Z</time></trkpt><trkpt lat="37.0295432" lon="15.0428127"><ele>481.25</ele><time>2026-03-28T09:01:24.507Z</time></trkpt><trkpt lat="37.0295516" lon="15.0426746"><ele>482.0</ele><time>2026-03-28T09:01:25.508Z</time></trkpt><trkpt lat="37.0295539" lon="15.0425481"><ele>481.6</ele><time>2026-03-28T09:01:26.507Z</time></trkpt><trkpt lat="37.0295561" lon="15.0424287"><ele>481.20000000000005</ele><time>2026-03-28T09:01:27.508Z</time></trkpt><trkpt lat="37.0295598" lon="15.0423297"><ele>480.8</ele><time>2026-03-28T09:01:28.508Z</time></trkpt><trkpt lat="37.0295731" lon="15.0422186"><ele>480.4</ele><time>2026-03-28T09:01:30.506Z</time></trkpt><trkpt lat="37.0295917" lon="15.0421279"><ele>480.0</ele><time>2026-03-28T09:01:37.507Z</time></trkpt><trkpt lat="37.0295725" lon="15.0419625"><ele>480.0</ele><time>2026-03-28T09:01:39.508Z</time></trkpt><trkpt lat="37.0295305" lon="15.0418697"><ele>480.0</ele><time>2026-03-28T09:01:40.508Z</time></trkpt><trkpt lat="37.0294688" lon="15.0417614"><ele>480.0</ele><time>2026-03-28T09:01:41.508Z</time></trkpt><trkpt lat="37.0294027" lon="15.0416502"><ele>480.0</ele><time>2026-03-28T09:01:42.509Z</time></trkpt><trkpt lat="37.0293381" lon="15.0415447"><ele>480.0</ele><time>2026-03-28T09:01:43.509Z</time></trkpt><trkpt lat="37.0292674" lon="15.0414444"><ele>481.75</ele><time>2026-03-28T09:01:44.507Z</time></trkpt><trkpt lat="37.0291906" lon="15.04134"><ele>483.5</ele><time>2026-03-28T09:01:45.509Z</time></trkpt><trkpt lat="37.0291055" lon="15.0412375"><ele>485.25</ele><time>2026-03-28T09:01:46.507Z</time></trkpt><trkpt lat="37.0290117" lon="15.041134"><ele>487.0</ele><time>2026-03-28T09:01:47.506Z</time></trkpt><trkpt lat="37.0289055" lon="15.0410244"><ele>487.0</ele><time>2026-03-28T09:01:48.506Z</time></trkpt><trkpt lat="37.0287951" lon="15.0409134"><ele>487.0</ele><time>2026-03-28T09:01:49.507Z</time></trkpt><trkpt lat="37.0286817" lon="15.0408113"><ele>487.0</ele><time>2026-03-28T09:01:50.507Z</time></trkpt><trkpt lat="37.0285558" lon="15.0407129"><ele>487.0</ele><time>2026-03-28T09:01:51.506Z</time></trkpt><trkpt lat="37.0284162" lon="15.0406154"><ele>487.33333333333337</ele><time>2026-03-28T09:01:52.507Z</time></trkpt><trkpt lat="37.0282653" lon="15.0405203"><ele>487.66666666666663</ele><time>2026-03-28T09:01:53.507Z</time></trkpt><trkpt lat="37.0281086" lon="15.0404346"><ele>488.0</ele><time>2026-03-28T09:01:54.508Z</time></trkpt><trkpt lat="37.0279553" lon="15.0403563"><ele>488.0</ele><time>2026-03-28T09:01:55.507Z</time></trkpt><trkpt lat="37.0277966" lon="15.0402799"><ele>488.0</ele><time>2026-03-28T09:01:56.507Z</time></trkpt><trkpt lat="37.0276337" lon="15.0402001"><ele>488.0</ele><time>2026-03-28T09:01:57.507Z</time></trkpt><trkpt lat="37.0274716" lon="15.0401038"><ele>488.0</ele><time>2026-03-28T09:01:58.507Z</time></trkpt><trkpt lat="37.0273139" lon="15.0400046"><ele>488.0</ele><time>2026-03-28T09:01:59.506Z</time></trkpt><trkpt lat="37.0271506" lon="15.0398971"><ele>488.0</ele><time>2026-03-28T09:02:00.508Z</time></trkpt><trkpt lat="37.0269895" lon="15.0397816"><ele>488.0</ele><time>2026-03-28T09:02:01.508Z</time></trkpt><trkpt lat="37.0268277" lon="15.0396603"><ele>488.0</ele><time>2026-03-28T09:02:02.507Z</time></trkpt><trkpt lat="37.0266687" lon="15.0395381"><ele>488.0</ele><time>2026-03-28T09:02:03.508Z</time></trkpt><trkpt lat="37.0265178" lon="15.0394195"><ele>486.66666666666663</ele><time>2026-03-28T09:02:04.508Z</time></trkpt><trkpt lat="37.0263701" lon="15.0393015"><ele>485.33333333333337</ele><time>2026-03-28T09:02:05.507Z</time></trkpt><trkpt lat="37.0262188" lon="15.0391929"><ele>484.0</ele><time>2026-03-28T09:02:06.507Z</time></trkpt><trkpt lat="37.0260683" lon="15.0390893"><ele>484.0</ele><time>2026-03-28T09:02:07.507Z</time></trkpt><trkpt lat="37.0259108" lon="15.0389938"><ele>484.0</ele><time>2026-03-28T09:02:08.508Z</time></trkpt><trkpt lat="37.0257505" lon="15.0388885"><ele>484.0</ele><time>2026-03-28T09:02:09.506Z</time></trkpt><trkpt lat="37.0255865" lon="15.0387961"><ele>479.6666666666667</ele><time>2026-03-28T09:02:10.507Z</time></trkpt><trkpt lat="37.0254089" lon="15.0387099"><ele>475.33333333333337</ele><time>2026-03-28T09:02:11.507Z</time></trkpt><trkpt lat="37.0252227" lon="15.0386317"><ele>471.0</ele><time>2026-03-28T09:02:12.507Z</time></trkpt><trkpt lat="37.0250285" lon="15.0385577"><ele>469.66666666666663</ele><time>2026-03-28T09:02:13.507Z</time></trkpt><trkpt lat="37.0248293" lon="15.0384821"><ele>468.3333333333333</ele><time>2026-03-28T09:02:14.507Z</time></trkpt><trkpt lat="37.0246249" lon="15.0384045"><ele>467.0</ele><time>2026-03-28T09:02:15.509Z</time></trkpt><trkpt lat="37.0244151" lon="15.0383298"><ele>467.66666666666663</ele><time>2026-03-28T09:02:16.508Z</time></trkpt><trkpt lat="37.0242026" lon="15.0382521"><ele>468.33333333333337</ele><time>2026-03-28T09:02:17.507Z</time></trkpt><trkpt lat="37.023998" lon="15.038178"><ele>469.0</ele><time>2026-03-28T09:02:18.509Z</time></trkpt><trkpt lat="37.0238017" lon="15.0381116"><ele>469.0</ele><time>2026-03-28T09:02:19.507Z</time></trkpt><trkpt lat="37.0236035" lon="15.0380339"><ele>469.0</ele><time>2026-03-28T09:02:20.508Z</time></trkpt><trkpt lat="37.0233974" lon="15.0379567"><ele>469.0</ele><time>2026-03-28T09:02:21.508Z</time></trkpt><trkpt lat="37.0231864" lon="15.0378756"><ele>469.0</ele><time>2026-03-28T09:02:22.508Z</time></trkpt><trkpt lat="37.0229738" lon="15.0377919"><ele>469.0</ele><time>2026-03-28T09:02:23.508Z</time></trkpt><trkpt lat="37.0227565" lon="15.0376979"><ele>469.0</ele><time>2026-03-28T09:02:24.506Z</time></trkpt><trkpt lat="37.0225377" lon="15.0375936"><ele>469.0</ele><time>2026-03-28T09:02:25.507Z</time></trkpt><trkpt lat="37.0223182" lon="15.0374764"><ele>468.5</ele><time>2026-03-28T09:02:26.507Z</time></trkpt><trkpt lat="37.0220933" lon="15.0373533"><ele>468.0</ele><time>2026-03-28T09:02:27.509Z</time></trkpt><trkpt lat="37.0218691" lon="15.0372211"><ele>466.0</ele><time>2026-03-28T09:02:28.508Z</time></trkpt><trkpt lat="37.0216427" lon="15.0370934"><ele>464.0</ele><time>2026-03-28T09:02:29.507Z</time></trkpt><trkpt lat="37.0214251" lon="15.0369617"><ele>464.0</ele><time>2026-03-28T09:02:30.507Z</time></trkpt><trkpt lat="37.021212" lon="15.0368338"><ele>464.0</ele><time>2026-03-28T09:02:31.507Z</time></trkpt><trkpt lat="37.0210041" lon="15.0366905"><ele>461.0</ele><time>2026-03-28T09:02:32.508Z</time></trkpt><trkpt lat="37.0207977" lon="15.0365277"><ele>458.0</ele><time>2026-03-28T09:02:33.506Z</time></trkpt><trkpt lat="37.0205939" lon="15.036352"><ele>458.0</ele><time>2026-03-28T09:02:34.507Z</time></trkpt><trkpt lat="37.0203909" lon="15.0361727"><ele>458.0</ele><time>2026-03-28T09:02:35.507Z</time></trkpt><trkpt lat="37.0201846" lon="15.0359841"><ele>456.0</ele><time>2026-03-28T09:02:36.506Z</time></trkpt><trkpt lat="37.0199806" lon="15.0357958"><ele>454.0</ele><time>2026-03-28T09:02:37.508Z</time></trkpt><trkpt lat="37.0197756" lon="15.0356008"><ele>454.0</ele><time>2026-03-28T09:02:38.507Z</time></trkpt><trkpt lat="37.0195689" lon="15.0354057"><ele>454.0</ele><time>2026-03-28T09:02:39.506Z</time></trkpt><trkpt lat="37.0193585" lon="15.0352171"><ele>454.0</ele><time>2026-03-28T09:02:40.509Z</time></trkpt><trkpt lat="37.0191591" lon="15.0350281"><ele>454.0</ele><time>2026-03-28T09:02:41.508Z</time></trkpt><trkpt lat="37.0189643" lon="15.0348441"><ele>453.0</ele><time>2026-03-28T09:02:42.509Z</time></trkpt><trkpt lat="37.0187713" lon="15.0346546"><ele>452.0</ele><time>2026-03-28T09:02:43.508Z</time></trkpt><trkpt lat="37.018569" lon="15.0344614"><ele>452.0</ele><time>2026-03-28T09:02:44.507Z</time></trkpt><trkpt lat="37.0183649" lon="15.0342706"><ele>452.0</ele><time>2026-03-28T09:02:45.508Z</time></trkpt><trkpt lat="37.0181582" lon="15.0340757"><ele>453.5</ele><time>2026-03-28T09:02:46.507Z</time></trkpt><trkpt lat="37.0179474" lon="15.0338789"><ele>455.0</ele><time>2026-03-28T09:02:47.506Z</time></trkpt><trkpt lat="37.0177355" lon="15.0336824"><ele>455.0</ele><time>2026-03-28T09:02:48.507Z</time></trkpt><trkpt lat="37.0175265" lon="15.0334867"><ele>455.0</ele><time>2026-03-28T09:02:49.507Z</time></trkpt><trkpt lat="37.0173152" lon="15.0332883"><ele>458.0</ele><time>2026-03-28T09:02:50.508Z</time></trkpt><trkpt lat="37.0171038" lon="15.0330916"><ele>461.0</ele><time>2026-03-28T09:02:51.507Z</time></trkpt><trkpt lat="37.0168924" lon="15.0328902"><ele>461.0</ele><time>2026-03-28T09:02:52.507Z</time></trkpt><trkpt lat="37.0166817" lon="15.0326929"><ele>461.0</ele><time>2026-03-28T09:02:53.509Z</time></trkpt><trkpt lat="37.0164766" lon="15.0324979"><ele>463.0</ele><time>2026-03-28T09:02:54.507Z</time></trkpt><trkpt lat="37.0162715" lon="15.032308"><ele>465.0</ele><time>2026-03-28T09:02:55.507Z</time></trkpt><trkpt lat="37.0160697" lon="15.0321215"><ele>465.0</ele><time>2026-03-28T09:02:56.508Z</time></trkpt><trkpt lat="37.0158686" lon="15.0319293"><ele>465.0</ele><time>2026-03-28T09:02:57.508Z</time></trkpt><trkpt lat="37.0156795" lon="15.0317284"><ele>467.0</ele><time>2026-03-28T09:02:58.507Z</time></trkpt><trkpt lat="37.0154966" lon="15.031521"><ele>469.0</ele><time>2026-03-28T09:02:59.507Z</time></trkpt><trkpt lat="37.0153205" lon="15.0312967"><ele>469.0</ele><time>2026-03-28T09:03:00.508Z</time></trkpt><trkpt lat="37.0151524" lon="15.0310677"><ele>469.0</ele><time>2026-03-28T09:03:01.508Z</time></trkpt><trkpt lat="37.0149926" lon="15.030828"><ele>470.0</ele><time>2026-03-28T09:03:02.508Z</time></trkpt><trkpt lat="37.0148424" lon="15.0305787"><ele>471.0</ele><time>2026-03-28T09:03:03.507Z</time></trkpt><trkpt lat="37.0147003" lon="15.0303231"><ele>471.0</ele><time>2026-03-28T09:03:04.506Z</time></trkpt><trkpt lat="37.0145725" lon="15.030071"><ele>471.0</ele><time>2026-03-28T09:03:05.509Z</time></trkpt><trkpt lat="37.0144598" lon="15.0298277"><ele>473.0</ele><time>2026-03-28T09:03:06.508Z</time></trkpt><trkpt lat="37.014358" lon="15.0295874"><ele>475.0</ele><time>2026-03-28T09:03:07.507Z</time></trkpt><trkpt lat="37.0142757" lon="15.0293526"><ele>477.0</ele><time>2026-03-28T09:03:08.507Z</time></trkpt><trkpt lat="37.0142024" lon="15.0291269"><ele>480.66666666666663</ele><time>2026-03-28T09:03:09.508Z</time></trkpt><trkpt lat="37.014138" lon="15.0289104"><ele>484.3333333333333</ele><time>2026-03-28T09:03:10.508Z</time></trkpt><trkpt lat="37.0140826" lon="15.0287006"><ele>488.0</ele><time>2026-03-28T09:03:11.508Z</time></trkpt><trkpt lat="37.0140287" lon="15.0284955"><ele>489.3333333333333</ele><time>2026-03-28T09:03:12.508Z</time></trkpt><trkpt lat="37.0139836" lon="15.0282997"><ele>490.66666666666663</ele><time>2026-03-28T09:03:13.507Z</time></trkpt><trkpt lat="37.0139455" lon="15.0281118"><ele>492.0</ele><time>2026-03-28T09:03:14.508Z</time></trkpt><trkpt lat="37.0139131" lon="15.0279282"><ele>492.0</ele><time>2026-03-28T09:03:15.508Z</time></trkpt><trkpt lat="37.0138856" lon="15.0277414"><ele>492.0</ele><time>2026-03-28T09:03:16.506Z</time></trkpt><trkpt lat="37.0138606" lon="15.0275386"><ele>492.0</ele><time>2026-03-28T09:03:17.508Z</time></trkpt><trkpt lat="37.0138332" lon="15.0273252"><ele>490.66666666666663</ele><time>2026-03-28T09:03:18.507Z</time></trkpt><trkpt lat="37.0138177" lon="15.0270911"><ele>489.3333333333333</ele><time>2026-03-28T09:03:19.507Z</time></trkpt><trkpt lat="37.0138118" lon="15.0268506"><ele>488.0</ele><time>2026-03-28T09:03:20.506Z</time></trkpt><trkpt lat="37.0138118" lon="15.0266006"><ele>487.0</ele><time>2026-03-28T09:03:21.507Z</time></trkpt><trkpt lat="37.0138196" lon="15.026339"><ele>486.0</ele><time>2026-03-28T09:03:22.508Z</time></trkpt><trkpt lat="37.013831" lon="15.0260658"><ele>485.0</ele><time>2026-03-28T09:03:23.508Z</time></trkpt><trkpt lat="37.0138548" lon="15.0257849"><ele>484.5</ele><time>2026-03-28T09:03:24.509Z</time></trkpt><trkpt lat="37.0138829" lon="15.0254994"><ele>484.0</ele><time>2026-03-28T09:03:25.507Z</time></trkpt><trkpt lat="37.0139093" lon="15.0252074"><ele>486.0</ele><time>2026-03-28T09:03:26.507Z</time></trkpt><trkpt lat="37.0139278" lon="15.0249077"><ele>488.0</ele><time>2026-03-28T09:03:27.507Z</time></trkpt><trkpt lat="37.0139444" lon="15.0246053"><ele>488.0</ele><time>2026-03-28T09:03:28.507Z</time></trkpt><trkpt lat="37.0139591" lon="15.024318"><ele>488.0</ele><time>2026-03-28T09:03:29.508Z</time></trkpt><trkpt lat="37.0139803" lon="15.0240355"><ele>489.5</ele><time>2026-03-28T09:03:30.507Z</time></trkpt><trkpt lat="37.0139982" lon="15.0237496"><ele>491.0</ele><time>2026-03-28T09:03:31.508Z</time></trkpt><trkpt lat="37.0140149" lon="15.0234562"><ele>485.0</ele><time>2026-03-28T09:03:32.507Z</time></trkpt><trkpt lat="37.0140286" lon="15.0231657"><ele>479.0</ele><time>2026-03-28T09:03:33.507Z</time></trkpt><trkpt lat="37.0140442" lon="15.022868"><ele>479.0</ele><time>2026-03-28T09:03:34.507Z</time></trkpt><trkpt lat="37.0140588" lon="15.0225722"><ele>479.0</ele><time>2026-03-28T09:03:35.507Z</time></trkpt><trkpt lat="37.014076" lon="15.0222719"><ele>475.0</ele><time>2026-03-28T09:03:36.507Z</time></trkpt><trkpt lat="37.0140929" lon="15.0219721"><ele>471.0</ele><time>2026-03-28T09:03:37.507Z</time></trkpt><trkpt lat="37.0141091" lon="15.021678"><ele>473.0</ele><time>2026-03-28T09:03:38.507Z</time></trkpt><trkpt lat="37.0141265" lon="15.0213872"><ele>475.0</ele><time>2026-03-28T09:03:39.507Z</time></trkpt><trkpt lat="37.0141426" lon="15.0211067"><ele>473.0</ele><time>2026-03-28T09:03:40.507Z</time></trkpt><trkpt lat="37.0141614" lon="15.0208273"><ele>471.0</ele><time>2026-03-28T09:03:41.506Z</time></trkpt><trkpt lat="37.0141799" lon="15.0205512"><ele>469.0</ele><time>2026-03-28T09:03:42.507Z</time></trkpt><trkpt lat="37.0141975" lon="15.0202795"><ele>469.0</ele><time>2026-03-28T09:03:43.507Z</time></trkpt><trkpt lat="37.0142133" lon="15.0200161"><ele>469.0</ele><time>2026-03-28T09:03:44.507Z</time></trkpt><trkpt lat="37.0142276" lon="15.01976"><ele>469.0</ele><time>2026-03-28T09:03:45.508Z</time></trkpt><trkpt lat="37.0142421" lon="15.0195243"><ele>468.6666666666667</ele><time>2026-03-28T09:03:46.507Z</time></trkpt><trkpt lat="37.014256" lon="15.0192878"><ele>468.33333333333337</ele><time>2026-03-28T09:03:47.507Z</time></trkpt><trkpt lat="37.0142676" lon="15.0190479"><ele>468.0</ele><time>2026-03-28T09:03:48.507Z</time></trkpt><trkpt lat="37.0142832" lon="15.0188058"><ele>466.0</ele><time>2026-03-28T09:03:49.507Z</time></trkpt><trkpt lat="37.0142933" lon="15.0185574"><ele>464.0</ele><time>2026-03-28T09:03:50.508Z</time></trkpt><trkpt lat="37.0143069" lon="15.0183146"><ele>462.0</ele><time>2026-03-28T09:03:51.508Z</time></trkpt><trkpt lat="37.014318" lon="15.0180735"><ele>461.0</ele><time>2026-03-28T09:03:52.506Z</time></trkpt><trkpt lat="37.0143312" lon="15.0178351"><ele>460.0</ele><time>2026-03-28T09:03:53.508Z</time></trkpt><trkpt lat="37.0143465" lon="15.0175891"><ele>459.0</ele><time>2026-03-28T09:03:54.507Z</time></trkpt><trkpt lat="37.0143642" lon="15.0173395"><ele>458.0</ele><time>2026-03-28T09:03:55.507Z</time></trkpt><trkpt lat="37.0143783" lon="15.0170814"><ele>457.0</ele><time>2026-03-28T09:03:56.508Z</time></trkpt><trkpt lat="37.0143927" lon="15.0168238"><ele>456.0</ele><time>2026-03-28T09:03:57.507Z</time></trkpt><trkpt lat="37.014407" lon="15.0165618"><ele>455.0</ele><time>2026-03-28T09:03:58.506Z</time></trkpt><trkpt lat="37.0144215" lon="15.016295"><ele>454.0</ele><time>2026-03-28T09:03:59.507Z</time></trkpt><trkpt lat="37.0144393" lon="15.0160267"><ele>453.0</ele><time>2026-03-28T09:04:00.507Z</time></trkpt><trkpt lat="37.0144572" lon="15.015758"><ele>452.66666666666663</ele><time>2026-03-28T09:04:01.507Z</time></trkpt><trkpt lat="37.0144709" lon="15.0154952"><ele>452.3333333333333</ele><time>2026-03-28T09:04:02.507Z</time></trkpt><trkpt lat="37.0144846" lon="15.0152329"><ele>452.0</ele><time>2026-03-28T09:04:03.507Z</time></trkpt><trkpt lat="37.014501" lon="15.0149677"><ele>451.66666666666663</ele><time>2026-03-28T09:04:04.507Z</time></trkpt><trkpt lat="37.0145177" lon="15.0147032"><ele>451.33333333333337</ele><time>2026-03-28T09:04:05.507Z</time></trkpt><trkpt lat="37.0145335" lon="15.0144433"><ele>451.0</ele><time>2026-03-28T09:04:06.507Z</time></trkpt><trkpt lat="37.0145499" lon="15.0141985"><ele>451.33333333333337</ele><time>2026-03-28T09:04:07.508Z</time></trkpt><trkpt lat="37.0145618" lon="15.013968"><ele>451.66666666666663</ele><time>2026-03-28T09:04:08.507Z</time></trkpt><trkpt lat="37.014573" lon="15.0137508"><ele>452.0</ele><time>2026-03-28T09:04:09.506Z</time></trkpt><trkpt lat="37.014583" lon="15.0135538"><ele>452.0</ele><time>2026-03-28T09:04:10.507Z</time></trkpt><trkpt lat="37.014595" lon="15.0133707"><ele>452.0</ele><time>2026-03-28T09:04:11.507Z</time></trkpt><trkpt lat="37.0146185" lon="15.0131996"><ele>452.0</ele><time>2026-03-28T09:04:12.507Z</time></trkpt><trkpt lat="37.0146735" lon="15.0130507"><ele>452.0</ele><time>2026-03-28T09:04:13.508Z</time></trkpt><trkpt lat="37.0147564" lon="15.0129346"><ele>452.0</ele><time>2026-03-28T09:04:14.507Z</time></trkpt><trkpt lat="37.0148647" lon="15.0128688"><ele>452.0</ele><time>2026-03-28T09:04:15.507Z</time></trkpt><trkpt lat="37.0149846" lon="15.0128516"><ele>452.0</ele><time>2026-03-28T09:04:16.508Z</time></trkpt><trkpt lat="37.0151048" lon="15.0128872"><ele>452.0</ele><time>2026-03-28T09:04:17.506Z</time></trkpt><trkpt lat="37.0152032" lon="15.012971"><ele>452.5</ele><time>2026-03-28T09:04:18.507Z</time></trkpt><trkpt lat="37.0152707" lon="15.0130937"><ele>453.0</ele><time>2026-03-28T09:04:19.507Z</time></trkpt><trkpt lat="37.0153007" lon="15.0132407"><ele>453.5</ele><time>2026-03-28T09:04:20.507Z</time></trkpt><trkpt lat="37.0152925" lon="15.0133875"><ele>454.0</ele><time>2026-03-28T09:04:21.506Z</time></trkpt><trkpt lat="37.0152446" lon="15.0135216"><ele>454.0</ele><time>2026-03-28T09:04:22.506Z</time></trkpt><trkpt lat="37.0151621" lon="15.0136268"><ele>454.0</ele><time>2026-03-28T09:04:23.507Z</time></trkpt><trkpt lat="37.0150531" lon="15.013687"><ele>454.0</ele><time>2026-03-28T09:04:24.508Z</time></trkpt><trkpt lat="37.0149362" lon="15.0137271"><ele>454.0</ele><time>2026-03-28T09:04:25.507Z</time></trkpt><trkpt lat="37.0147938" lon="15.0137139"><ele>453.33333333333337</ele><time>2026-03-28T09:04:26.507Z</time></trkpt><trkpt lat="37.0146421" lon="15.0136934"><ele>452.66666666666663</ele><time>2026-03-28T09:04:27.508Z</time></trkpt><trkpt lat="37.014488" lon="15.0136888"><ele>452.0</ele><time>2026-03-28T09:04:28.507Z</time></trkpt><trkpt lat="37.0143302" lon="15.0136844"><ele>452.0</ele><time>2026-03-28T09:04:29.507Z</time></trkpt><trkpt lat="37.0141809" lon="15.0136753"><ele>452.0</ele><time>2026-03-28T09:04:30.506Z</time></trkpt><trkpt lat="37.0140266" lon="15.013667"><ele>452.0</ele><time>2026-03-28T09:04:31.506Z</time></trkpt><trkpt lat="37.0138594" lon="15.0136609"><ele>451.66666666666663</ele><time>2026-03-28T09:04:32.507Z</time></trkpt><trkpt lat="37.0136811" lon="15.0136546"><ele>451.33333333333337</ele><time>2026-03-28T09:04:33.508Z</time></trkpt><trkpt lat="37.0134999" lon="15.0136482"><ele>451.0</ele><time>2026-03-28T09:04:34.508Z</time></trkpt><trkpt lat="37.0133136" lon="15.0136395"><ele>452.0</ele><time>2026-03-28T09:04:35.507Z</time></trkpt><trkpt lat="37.0131219" lon="15.0136285"><ele>453.0</ele><time>2026-03-28T09:04:36.507Z</time></trkpt><trkpt lat="37.0129287" lon="15.0136129"><ele>454.0</ele><time>2026-03-28T09:04:37.508Z</time></trkpt><trkpt lat="37.0127317" lon="15.0135941"><ele>454.0</ele><time>2026-03-28T09:04:38.507Z</time></trkpt><trkpt lat="37.012543" lon="15.0135756"><ele>454.0</ele><time>2026-03-28T09:04:39.507Z</time></trkpt><trkpt lat="37.0123567" lon="15.0135567"><ele>454.0</ele><time>2026-03-28T09:04:40.507Z</time></trkpt><trkpt lat="37.0121654" lon="15.0135288"><ele>455.33333333333337</ele><time>2026-03-28T09:04:41.507Z</time></trkpt><trkpt lat="37.0119727" lon="15.0134882"><ele>456.66666666666663</ele><time>2026-03-28T09:04:42.508Z</time></trkpt><trkpt lat="37.0117768" lon="15.0134383"><ele>458.0</ele><time>2026-03-28T09:04:43.507Z</time></trkpt><trkpt lat="37.0115793" lon="15.0133809"><ele>458.3333333333333</ele><time>2026-03-28T09:04:44.506Z</time></trkpt><trkpt lat="37.011383" lon="15.0133183"><ele>458.66666666666663</ele><time>2026-03-28T09:04:45.506Z</time></trkpt><trkpt lat="37.0111868" lon="15.0132442"><ele>459.0</ele><time>2026-03-28T09:04:46.507Z</time></trkpt><trkpt lat="37.0109882" lon="15.0131634"><ele>460.0</ele><time>2026-03-28T09:04:47.508Z</time></trkpt><trkpt lat="37.0107908" lon="15.0130818"><ele>461.0</ele><time>2026-03-28T09:04:48.507Z</time></trkpt><trkpt lat="37.0105962" lon="15.0130007"><ele>462.0</ele><time>2026-03-28T09:04:49.508Z</time></trkpt><trkpt lat="37.0104123" lon="15.0129292"><ele>462.0</ele><time>2026-03-28T09:04:50.507Z</time></trkpt><trkpt lat="37.0102489" lon="15.0128637"><ele>462.0</ele><time>2026-03-28T09:04:51.506Z</time></trkpt><trkpt lat="37.0100943" lon="15.0128028"><ele>462.0</ele><time>2026-03-28T09:04:52.507Z</time></trkpt><trkpt lat="37.0099497" lon="15.0127554"><ele>461.0</ele><time>2026-03-28T09:04:53.507Z</time></trkpt><trkpt lat="37.0098149" lon="15.0127479"><ele>460.0</ele><time>2026-03-28T09:04:54.507Z</time></trkpt><trkpt lat="37.0096798" lon="15.0127937"><ele>459.0</ele><time>2026-03-28T09:04:55.507Z</time></trkpt><trkpt lat="37.0095432" lon="15.0128997"><ele>458.0</ele><time>2026-03-28T09:04:56.507Z</time></trkpt><trkpt lat="37.0094098" lon="15.0130361"><ele>458.0</ele><time>2026-03-28T09:04:57.508Z</time></trkpt><trkpt lat="37.009283" lon="15.0132"><ele>458.0</ele><time>2026-03-28T09:04:58.506Z</time></trkpt><trkpt lat="37.009161" lon="15.0133849"><ele>458.0</ele><time>2026-03-28T09:04:59.508Z</time></trkpt><trkpt lat="37.0090337" lon="15.013581"><ele>457.3333333333333</ele><time>2026-03-28T09:05:00.506Z</time></trkpt><trkpt lat="37.0089028" lon="15.0137798"><ele>456.66666666666663</ele><time>2026-03-28T09:05:01.508Z</time></trkpt><trkpt lat="37.0087751" lon="15.0139727"><ele>456.0</ele><time>2026-03-28T09:05:02.507Z</time></trkpt><trkpt lat="37.0086543" lon="15.0141569"><ele>456.0</ele><time>2026-03-28T09:05:03.507Z</time></trkpt><trkpt lat="37.0085408" lon="15.0143311"><ele>456.0</ele><time>2026-03-28T09:05:04.506Z</time></trkpt><trkpt lat="37.0084178" lon="15.0144914"><ele>456.0</ele><time>2026-03-28T09:05:05.507Z</time></trkpt><trkpt lat="37.0082713" lon="15.0146352"><ele>455.66666666666663</ele><time>2026-03-28T09:05:06.508Z</time></trkpt><trkpt lat="37.0081049" lon="15.014767"><ele>455.3333333333333</ele><time>2026-03-28T09:05:07.507Z</time></trkpt><trkpt lat="37.0079287" lon="15.0148947"><ele>455.0</ele><time>2026-03-28T09:05:08.507Z</time></trkpt><trkpt lat="37.0077423" lon="15.0150191"><ele>455.0</ele><time>2026-03-28T09:05:09.506Z</time></trkpt><trkpt lat="37.0075611" lon="15.0151433"><ele>455.0</ele><time>2026-03-28T09:05:10.506Z</time></trkpt><trkpt lat="37.0073881" lon="15.0152612"><ele>455.0</ele><time>2026-03-28T09:05:11.506Z</time></trkpt><trkpt lat="37.0072154" lon="15.0153839"><ele>455.0</ele><time>2026-03-28T09:05:12.507Z</time></trkpt><trkpt lat="37.0070425" lon="15.0155148"><ele>455.0</ele><time>2026-03-28T09:05:13.508Z</time></trkpt><trkpt lat="37.0068713" lon="15.0156646"><ele>455.0</ele><time>2026-03-28T09:05:14.507Z</time></trkpt><trkpt lat="37.0067014" lon="15.0158329"><ele>454.3333333333333</ele><time>2026-03-28T09:05:15.507Z</time></trkpt><trkpt lat="37.0065322" lon="15.0160122"><ele>453.66666666666663</ele><time>2026-03-28T09:05:16.507Z</time></trkpt><trkpt lat="37.0063587" lon="15.0161946"><ele>453.0</ele><time>2026-03-28T09:05:17.507Z</time></trkpt><trkpt lat="37.0061791" lon="15.0163814"><ele>453.0</ele><time>2026-03-28T09:05:18.507Z</time></trkpt><trkpt lat="37.0060003" lon="15.0165658"><ele>453.0</ele><time>2026-03-28T09:05:19.506Z</time></trkpt><trkpt lat="37.0058286" lon="15.0167449"><ele>453.33333333333337</ele><time>2026-03-28T09:05:20.508Z</time></trkpt><trkpt lat="37.0056666" lon="15.016915"><ele>453.6666666666667</ele><time>2026-03-28T09:05:21.508Z</time></trkpt><trkpt lat="37.0055144" lon="15.0170765"><ele>454.0</ele><time>2026-03-28T09:05:22.507Z</time></trkpt><trkpt lat="37.0053663" lon="15.017231"><ele>454.0</ele><time>2026-03-28T09:05:23.507Z</time></trkpt><trkpt lat="37.0052164" lon="15.017377"><ele>454.0</ele><time>2026-03-28T09:05:24.506Z</time></trkpt><trkpt lat="37.0050568" lon="15.0175157"><ele>454.0</ele><time>2026-03-28T09:05:25.508Z</time></trkpt><trkpt lat="37.0048825" lon="15.0176408"><ele>454.6666666666667</ele><time>2026-03-28T09:05:26.506Z</time></trkpt><trkpt lat="37.0046989" lon="15.0177604"><ele>455.33333333333337</ele><time>2026-03-28T09:05:27.506Z</time></trkpt><trkpt lat="37.0045144" lon="15.0178822"><ele>456.0</ele><time>2026-03-28T09:05:28.506Z</time></trkpt><trkpt lat="37.0043279" lon="15.0180075"><ele>456.33333333333337</ele><time>2026-03-28T09:05:29.506Z</time></trkpt><trkpt lat="37.0041411" lon="15.0181364"><ele>456.6666666666667</ele><time>2026-03-28T09:05:30.506Z</time></trkpt><trkpt lat="37.0039517" lon="15.0182636"><ele>457.0</ele><time>2026-03-28T09:05:31.508Z</time></trkpt><trkpt lat="37.0037575" lon="15.0183827"><ele>454.6666666666667</ele><time>2026-03-28T09:05:32.508Z</time></trkpt><trkpt lat="37.0035556" lon="15.0184929"><ele>452.33333333333337</ele><time>2026-03-28T09:05:33.505Z</time></trkpt><trkpt lat="37.0033495" lon="15.0185978"><ele>450.0</ele><time>2026-03-28T09:05:34.507Z</time></trkpt><trkpt lat="37.0031434" lon="15.0186992"><ele>449.0</ele><time>2026-03-28T09:05:35.508Z</time></trkpt><trkpt lat="37.002932" lon="15.0188049"><ele>448.0</ele><time>2026-03-28T09:05:36.506Z</time></trkpt><trkpt lat="37.0027153" lon="15.0189111"><ele>447.0</ele><time>2026-03-28T09:05:37.507Z</time></trkpt><trkpt lat="37.0024976" lon="15.0190206"><ele>446.0</ele><time>2026-03-28T09:05:38.507Z</time></trkpt><trkpt lat="37.0022759" lon="15.0191288"><ele>445.5</ele><time>2026-03-28T09:05:39.506Z</time></trkpt><trkpt lat="37.0020583" lon="15.0192376"><ele>445.0</ele><time>2026-03-28T09:05:40.507Z</time></trkpt><trkpt lat="37.0018369" lon="15.019349"><ele>444.5</ele><time>2026-03-28T09:05:41.507Z</time></trkpt><trkpt lat="37.0016142" lon="15.0194593"><ele>444.0</ele><time>2026-03-28T09:05:42.507Z</time></trkpt><trkpt lat="37.0013937" lon="15.0195679"><ele>444.0</ele><time>2026-03-28T09:05:43.506Z</time></trkpt><trkpt lat="37.0011727" lon="15.0196772"><ele>444.0</ele><time>2026-03-28T09:05:44.507Z</time></trkpt><trkpt lat="37.00095" lon="15.0197841"><ele>444.0</ele><time>2026-03-28T09:05:45.508Z</time></trkpt><trkpt lat="37.0007292" lon="15.0198929"><ele>444.0</ele><time>2026-03-28T09:05:46.507Z</time></trkpt><trkpt lat="37.0005129" lon="15.0200009"><ele>444.0</ele><time>2026-03-28T09:05:47.506Z</time></trkpt><trkpt lat="37.0003079" lon="15.0201011"><ele>444.0</ele><time>2026-03-28T09:05:48.508Z</time></trkpt><trkpt lat="37.0001117" lon="15.0201959"><ele>444.0</ele><time>2026-03-28T09:05:49.507Z</time></trkpt><trkpt lat="36.9999292" lon="15.0202863"><ele>444.0</ele><time>2026-03-28T09:05:50.507Z</time></trkpt><trkpt lat="36.9997603" lon="15.020391"><ele>444.0</ele><time>2026-03-28T09:05:51.506Z</time></trkpt><trkpt lat="36.9995982" lon="15.0205223"><ele>444.0</ele><time>2026-03-28T09:05:52.508Z</time></trkpt><trkpt lat="36.9994373" lon="15.0206765"><ele>444.0</ele><time>2026-03-28T09:05:53.508Z</time></trkpt><trkpt lat="36.9992697" lon="15.0208421"><ele>444.0</ele><time>2026-03-28T09:05:54.508Z</time></trkpt><trkpt lat="36.999093" lon="15.0210117"><ele>444.0</ele><time>2026-03-28T09:05:55.507Z</time></trkpt><trkpt lat="36.9989043" lon="15.0211833"><ele>444.0</ele><time>2026-03-28T09:05:56.506Z</time></trkpt><trkpt lat="36.9987109" lon="15.0213592"><ele>444.0</ele><time>2026-03-28T09:05:57.507Z</time></trkpt><trkpt lat="36.9985176" lon="15.0215454"><ele>443.5</ele><time>2026-03-28T09:05:58.508Z</time></trkpt><trkpt lat="36.9983233" lon="15.0217357"><ele>443.0</ele><time>2026-03-28T09:05:59.507Z</time></trkpt><trkpt lat="36.9981256" lon="15.0219252"><ele>443.0</ele><time>2026-03-28T09:06:00.507Z</time></trkpt><trkpt lat="36.99793" lon="15.022118"><ele>443.0</ele><time>2026-03-28T09:06:01.507Z</time></trkpt><trkpt lat="36.9977344" lon="15.0223116"><ele>443.0</ele><time>2026-03-28T09:06:02.507Z</time></trkpt><trkpt lat="36.9975378" lon="15.0225046"><ele>443.0</ele><time>2026-03-28T09:06:03.508Z</time></trkpt><trkpt lat="36.997337" lon="15.0227011"><ele>443.0</ele><time>2026-03-28T09:06:04.507Z</time></trkpt><trkpt lat="36.9971343" lon="15.022897"><ele>443.0</ele><time>2026-03-28T09:06:05.507Z</time></trkpt><trkpt lat="36.9969321" lon="15.0230895"><ele>443.0</ele><time>2026-03-28T09:06:06.508Z</time></trkpt><trkpt lat="36.9967267" lon="15.0232824"><ele>443.0</ele><time>2026-03-28T09:06:07.507Z</time></trkpt><trkpt lat="36.9965271" lon="15.0234696"><ele>442.0</ele><time>2026-03-28T09:06:08.507Z</time></trkpt><trkpt lat="36.9963296" lon="15.0236595"><ele>441.0</ele><time>2026-03-28T09:06:09.507Z</time></trkpt><trkpt lat="36.9961366" lon="15.0238507"><ele>441.0</ele><time>2026-03-28T09:06:10.508Z</time></trkpt><trkpt lat="36.9959447" lon="15.0240375"><ele>441.0</ele><time>2026-03-28T09:06:11.507Z</time></trkpt><trkpt lat="36.9957605" lon="15.0242127"><ele>441.33333333333337</ele><time>2026-03-28T09:06:12.507Z</time></trkpt><trkpt lat="36.9955806" lon="15.0243766"><ele>441.6666666666667</ele><time>2026-03-28T09:06:13.508Z</time></trkpt><trkpt lat="36.9954014" lon="15.0245407"><ele>442.0</ele><time>2026-03-28T09:06:14.507Z</time></trkpt><trkpt lat="36.9952244" lon="15.0246932"><ele>442.0</ele><time>2026-03-28T09:06:15.507Z</time></trkpt><trkpt lat="36.9950461" lon="15.0248264"><ele>442.0</ele><time>2026-03-28T09:06:16.506Z</time></trkpt><trkpt lat="36.9948563" lon="15.0249361"><ele>442.0</ele><time>2026-03-28T09:06:17.507Z</time></trkpt><trkpt lat="36.9946455" lon="15.0250203"><ele>442.0</ele><time>2026-03-28T09:06:18.506Z</time></trkpt><trkpt lat="36.9944261" lon="15.0250851"><ele>442.0</ele><time>2026-03-28T09:06:19.508Z</time></trkpt><trkpt lat="36.9941992" lon="15.0251508"><ele>441.5</ele><time>2026-03-28T09:06:20.506Z</time></trkpt><trkpt lat="36.9939683" lon="15.0252179"><ele>441.0</ele><time>2026-03-28T09:06:21.508Z</time></trkpt><trkpt lat="36.9937366" lon="15.0252837"><ele>441.0</ele><time>2026-03-28T09:06:22.507Z</time></trkpt><trkpt lat="36.9934996" lon="15.0253543"><ele>441.0</ele><time>2026-03-28T09:06:23.507Z</time></trkpt><trkpt lat="36.9932614" lon="15.0254279"><ele>439.5</ele><time>2026-03-28T09:06:24.505Z</time></trkpt><trkpt lat="36.9930197" lon="15.0254989"><ele>438.0</ele><time>2026-03-28T09:06:25.506Z</time></trkpt><trkpt lat="36.9927803" lon="15.0255703"><ele>438.0</ele><time>2026-03-28T09:06:26.506Z</time></trkpt><trkpt lat="36.9925417" lon="15.0256404"><ele>438.0</ele><time>2026-03-28T09:06:27.507Z</time></trkpt><trkpt lat="36.9923059" lon="15.0257096"><ele>438.0</ele><time>2026-03-28T09:06:28.508Z</time></trkpt><trkpt lat="36.9920726" lon="15.0257752"><ele>438.0</ele><time>2026-03-28T09:06:29.507Z</time></trkpt><trkpt lat="36.9918346" lon="15.0258436"><ele>437.0</ele><time>2026-03-28T09:06:30.506Z</time></trkpt><trkpt lat="36.9916022" lon="15.0259107"><ele>436.0</ele><time>2026-03-28T09:06:31.507Z</time></trkpt><trkpt lat="36.9913734" lon="15.0259747"><ele>436.0</ele><time>2026-03-28T09:06:32.507Z</time></trkpt><trkpt lat="36.9911653" lon="15.0260387"><ele>436.0</ele><time>2026-03-28T09:06:33.508Z</time></trkpt><trkpt lat="36.990964" lon="15.0260951"><ele>436.0</ele><time>2026-03-28T09:06:34.508Z</time></trkpt><trkpt lat="36.9907727" lon="15.0261546"><ele>433.6666666666667</ele><time>2026-03-28T09:06:35.507Z</time></trkpt><trkpt lat="36.9905968" lon="15.0262073"><ele>431.33333333333337</ele><time>2026-03-28T09:06:36.508Z</time></trkpt><trkpt lat="36.99044" lon="15.0262502"><ele>429.0</ele><time>2026-03-28T09:06:37.506Z</time></trkpt><trkpt lat="36.9902921" lon="15.0262697"><ele>429.0</ele><time>2026-03-28T09:06:38.508Z</time></trkpt><trkpt lat="36.9901625" lon="15.0262404"><ele>429.0</ele><time>2026-03-28T09:06:39.507Z</time></trkpt><trkpt lat="36.9900377" lon="15.0261662"><ele>429.0</ele><time>2026-03-28T09:06:40.508Z</time></trkpt><trkpt lat="36.9899107" lon="15.0260613"><ele>429.0</ele><time>2026-03-28T09:06:41.507Z</time></trkpt><trkpt lat="36.9897857" lon="15.0259323"><ele>424.66666666666663</ele><time>2026-03-28T09:06:42.507Z</time></trkpt><trkpt lat="36.9896706" lon="15.0257738"><ele>420.3333333333333</ele><time>2026-03-28T09:06:43.508Z</time></trkpt><trkpt lat="36.9895726" lon="15.025611"><ele>416.0</ele><time>2026-03-28T09:06:44.507Z</time></trkpt><trkpt lat="36.9894863" lon="15.0254449"><ele>416.0</ele><time>2026-03-28T09:06:45.507Z</time></trkpt><trkpt lat="36.9894353" lon="15.0252817"><ele>416.0</ele><time>2026-03-28T09:06:46.507Z</time></trkpt><trkpt lat="36.9894151" lon="15.025115"><ele>416.0</ele><time>2026-03-28T09:06:47.505Z</time></trkpt><trkpt lat="36.9894336" lon="15.0249451"><ele>416.0</ele><time>2026-03-28T09:06:48.507Z</time></trkpt><trkpt lat="36.9894488" lon="15.024768"><ele>414.75</ele><time>2026-03-28T09:06:49.508Z</time></trkpt><trkpt lat="36.9894433" lon="15.0246012"><ele>413.5</ele><time>2026-03-28T09:06:50.507Z</time></trkpt><trkpt lat="36.9894066" lon="15.0244553"><ele>412.25</ele><time>2026-03-28T09:06:51.507Z</time></trkpt><trkpt lat="36.9893416" lon="15.024344"><ele>411.0</ele><time>2026-03-28T09:06:52.507Z</time></trkpt><trkpt lat="36.9892532" lon="15.0242949"><ele>412.0</ele><time>2026-03-28T09:06:53.507Z</time></trkpt><trkpt lat="36.9891424" lon="15.0243022"><ele>413.0</ele><time>2026-03-28T09:06:54.506Z</time></trkpt><trkpt lat="36.98902" lon="15.0243543"><ele>414.0</ele><time>2026-03-28T09:06:55.507Z</time></trkpt><trkpt lat="36.9888904" lon="15.0244148"><ele>415.0</ele><time>2026-03-28T09:06:56.507Z</time></trkpt><trkpt lat="36.9887637" lon="15.024471"><ele>415.0</ele><time>2026-03-28T09:06:57.506Z</time></trkpt><trkpt lat="36.9886462" lon="15.0245533"><ele>415.0</ele><time>2026-03-28T09:06:58.507Z</time></trkpt><trkpt lat="36.9885622" lon="15.0246852"><ele>415.0</ele><time>2026-03-28T09:06:59.507Z</time></trkpt><trkpt lat="36.9885118" lon="15.0248413"><ele>415.0</ele><time>2026-03-28T09:07:00.506Z</time></trkpt><trkpt lat="36.9884813" lon="15.0250169"><ele>416.0</ele><time>2026-03-28T09:07:01.508Z</time></trkpt><trkpt lat="36.9884596" lon="15.0251891"><ele>417.0</ele><time>2026-03-28T09:07:02.506Z</time></trkpt><trkpt lat="36.988438" lon="15.025356"><ele>418.0</ele><time>2026-03-28T09:07:03.506Z</time></trkpt><trkpt lat="36.9884196" lon="15.0255078"><ele>419.0</ele><time>2026-03-28T09:07:04.508Z</time></trkpt><trkpt lat="36.9883973" lon="15.0256541"><ele>419.0</ele><time>2026-03-28T09:07:05.507Z</time></trkpt><trkpt lat="36.9883717" lon="15.0258045"><ele>419.0</ele><time>2026-03-28T09:07:06.507Z</time></trkpt><trkpt lat="36.9883296" lon="15.0259566"><ele>419.0</ele><time>2026-03-28T09:07:07.506Z</time></trkpt><trkpt lat="36.9882763" lon="15.026111"><ele>419.0</ele><time>2026-03-28T09:07:08.507Z</time></trkpt><trkpt lat="36.9882177" lon="15.0262621"><ele>416.5</ele><time>2026-03-28T09:07:09.506Z</time></trkpt><trkpt lat="36.9881558" lon="15.0264154"><ele>414.0</ele><time>2026-03-28T09:07:10.507Z</time></trkpt><trkpt lat="36.9880959" lon="15.026566"><ele>411.5</ele><time>2026-03-28T09:07:11.507Z</time></trkpt><trkpt lat="36.988036" lon="15.0267247"><ele>409.0</ele><time>2026-03-28T09:07:12.507Z</time></trkpt><trkpt lat="36.9879711" lon="15.0268925"><ele>408.0</ele><time>2026-03-28T09:07:13.505Z</time></trkpt><trkpt lat="36.9879042" lon="15.0270565"><ele>407.0</ele><time>2026-03-28T09:07:14.507Z</time></trkpt><trkpt lat="36.98784" lon="15.027215"><ele>406.0</ele><time>2026-03-28T09:07:15.507Z</time></trkpt><trkpt lat="36.9877685" lon="15.0273597"><ele>405.0</ele><time>2026-03-28T09:07:16.505Z</time></trkpt><trkpt lat="36.9876829" lon="15.0274803"><ele>404.75</ele><time>2026-03-28T09:07:17.506Z</time></trkpt><trkpt lat="36.9875737" lon="15.0275682"><ele>404.5</ele><time>2026-03-28T09:07:18.507Z</time></trkpt><trkpt lat="36.987457" lon="15.0276412"><ele>404.25</ele><time>2026-03-28T09:07:19.506Z</time></trkpt><trkpt lat="36.9873401" lon="15.0276983"><ele>404.0</ele><time>2026-03-28T09:07:20.507Z</time></trkpt><trkpt lat="36.9872339" lon="15.027753"><ele>406.0</ele><time>2026-03-28T09:07:21.507Z</time></trkpt><trkpt lat="36.9871332" lon="15.0277984"><ele>408.0</ele><time>2026-03-28T09:07:22.507Z</time></trkpt><trkpt lat="36.9870407" lon="15.0278382"><ele>410.0</ele><time>2026-03-28T09:07:23.507Z</time></trkpt><trkpt lat="36.986954" lon="15.0278752"><ele>412.0</ele><time>2026-03-28T09:07:24.508Z</time></trkpt><trkpt lat="36.9868719" lon="15.0279081"><ele>414.0</ele><time>2026-03-28T09:07:25.506Z</time></trkpt><trkpt lat="36.9867951" lon="15.0279204"><ele>414.0</ele><time>2026-03-28T09:07:26.508Z</time></trkpt><trkpt lat="36.986728" lon="15.0278908"><ele>414.0</ele><time>2026-03-28T09:07:27.506Z</time></trkpt><trkpt lat="36.9866855" lon="15.0278148"><ele>414.0</ele><time>2026-03-28T09:07:28.507Z</time></trkpt><trkpt lat="36.9866784" lon="15.0277118"><ele>414.0</ele><time>2026-03-28T09:07:29.507Z</time></trkpt><trkpt lat="36.9866924" lon="15.0275851"><ele>414.0</ele><time>2026-03-28T09:07:30.508Z</time></trkpt><trkpt lat="36.9867095" lon="15.0274432"><ele>414.0</ele><time>2026-03-28T09:07:31.507Z</time></trkpt><trkpt lat="36.9867193" lon="15.0272864"><ele>415.0</ele><time>2026-03-28T09:07:32.506Z</time></trkpt><trkpt lat="36.9867188" lon="15.0271173"><ele>416.0</ele><time>2026-03-28T09:07:33.507Z</time></trkpt><trkpt lat="36.9866974" lon="15.0269462"><ele>417.0</ele><time>2026-03-28T09:07:34.507Z</time></trkpt><trkpt lat="36.9866596" lon="15.0267829"><ele>418.0</ele><time>2026-03-28T09:07:35.508Z</time></trkpt><trkpt lat="36.9866065" lon="15.0266439"><ele>418.0</ele><time>2026-03-28T09:07:36.508Z</time></trkpt><trkpt lat="36.9865377" lon="15.0265262"><ele>418.0</ele><time>2026-03-28T09:07:37.507Z</time></trkpt><trkpt lat="36.9864487" lon="15.0264531"><ele>418.0</ele><time>2026-03-28T09:07:38.506Z</time></trkpt><trkpt lat="36.9863515" lon="15.0264395"><ele>418.0</ele><time>2026-03-28T09:07:39.506Z</time></trkpt><trkpt lat="36.9862507" lon="15.0264756"><ele>418.0</ele><time>2026-03-28T09:07:40.508Z</time></trkpt><trkpt lat="36.9861654" lon="15.0265634"><ele>418.5</ele><time>2026-03-28T09:07:41.507Z</time></trkpt><trkpt lat="36.9861043" lon="15.0266975"><ele>419.0</ele><time>2026-03-28T09:07:42.506Z</time></trkpt><trkpt lat="36.9860487" lon="15.0268512"><ele>419.5</ele><time>2026-03-28T09:07:43.506Z</time></trkpt><trkpt lat="36.9859943" lon="15.0270156"><ele>420.0</ele><time>2026-03-28T09:07:44.508Z</time></trkpt><trkpt lat="36.9859321" lon="15.0271864"><ele>420.0</ele><time>2026-03-28T09:07:45.508Z</time></trkpt><trkpt lat="36.9858609" lon="15.0273518"><ele>420.0</ele><time>2026-03-28T09:07:46.507Z</time></trkpt><trkpt lat="36.9857691" lon="15.0275201"><ele>420.0</ele><time>2026-03-28T09:07:47.507Z</time></trkpt><trkpt lat="36.9856684" lon="15.0276688"><ele>422.33333333333337</ele><time>2026-03-28T09:07:48.507Z</time></trkpt><trkpt lat="36.9855576" lon="15.0277939"><ele>424.6666666666667</ele><time>2026-03-28T09:07:49.507Z</time></trkpt><trkpt lat="36.9854314" lon="15.0278891"><ele>427.0</ele><time>2026-03-28T09:07:50.506Z</time></trkpt><trkpt lat="36.9852861" lon="15.0279558"><ele>427.0</ele><time>2026-03-28T09:07:51.508Z</time></trkpt><trkpt lat="36.985133" lon="15.0280176"><ele>427.0</ele><time>2026-03-28T09:07:52.506Z</time></trkpt><trkpt lat="36.9849738" lon="15.0280746"><ele>427.0</ele><time>2026-03-28T09:07:53.506Z</time></trkpt><trkpt lat="36.9848122" lon="15.0281321"><ele>429.33333333333337</ele><time>2026-03-28T09:07:54.508Z</time></trkpt><trkpt lat="36.9846452" lon="15.0281913"><ele>431.66666666666663</ele><time>2026-03-28T09:07:55.507Z</time></trkpt><trkpt lat="36.9844731" lon="15.0282522"><ele>434.0</ele><time>2026-03-28T09:07:56.507Z</time></trkpt><trkpt lat="36.984303" lon="15.0283093"><ele>433.66666666666663</ele><time>2026-03-28T09:07:57.506Z</time></trkpt><trkpt lat="36.9841309" lon="15.0283693"><ele>433.33333333333337</ele><time>2026-03-28T09:07:58.508Z</time></trkpt><trkpt lat="36.9839545" lon="15.0284343"><ele>433.0</ele><time>2026-03-28T09:07:59.506Z</time></trkpt><trkpt lat="36.9837729" lon="15.0284969"><ele>433.0</ele><time>2026-03-28T09:08:00.507Z</time></trkpt><trkpt lat="36.9835825" lon="15.0285621"><ele>433.0</ele><time>2026-03-28T09:08:01.508Z</time></trkpt><trkpt lat="36.9833875" lon="15.0286288"><ele>433.0</ele><time>2026-03-28T09:08:02.508Z</time></trkpt><trkpt lat="36.9831921" lon="15.0286981"><ele>433.33333333333337</ele><time>2026-03-28T09:08:03.508Z</time></trkpt><trkpt lat="36.9829976" lon="15.0287695"><ele>433.66666666666663</ele><time>2026-03-28T09:08:04.507Z</time></trkpt><trkpt lat="36.9828076" lon="15.0288552"><ele>434.0</ele><time>2026-03-28T09:08:05.507Z</time></trkpt><trkpt lat="36.9826213" lon="15.0289604"><ele>433.66666666666663</ele><time>2026-03-28T09:08:06.506Z</time></trkpt><trkpt lat="36.9824463" lon="15.0290718"><ele>433.33333333333337</ele><time>2026-03-28T09:08:07.505Z</time></trkpt><trkpt lat="36.9822771" lon="15.0291847"><ele>433.0</ele><time>2026-03-28T09:08:08.507Z</time></trkpt><trkpt lat="36.982111" lon="15.0292976"><ele>433.0</ele><time>2026-03-28T09:08:09.506Z</time></trkpt><trkpt lat="36.9819439" lon="15.0294049"><ele>433.0</ele><time>2026-03-28T09:08:10.507Z</time></trkpt><trkpt lat="36.9817763" lon="15.0295186"><ele>433.0</ele><time>2026-03-28T09:08:11.506Z</time></trkpt><trkpt lat="36.9816173" lon="15.0296263"><ele>433.6666666666667</ele><time>2026-03-28T09:08:12.507Z</time></trkpt><trkpt lat="36.9814615" lon="15.0297258"><ele>434.33333333333337</ele><time>2026-03-28T09:08:13.507Z</time></trkpt><trkpt lat="36.9813001" lon="15.0298293"><ele>435.0</ele><time>2026-03-28T09:08:14.506Z</time></trkpt><trkpt lat="36.9811433" lon="15.0299358"><ele>435.0</ele><time>2026-03-28T09:08:15.506Z</time></trkpt><trkpt lat="36.9809832" lon="15.0300407"><ele>435.0</ele><time>2026-03-28T09:08:16.507Z</time></trkpt><trkpt lat="36.9808189" lon="15.0301516"><ele>435.0</ele><time>2026-03-28T09:08:17.506Z</time></trkpt><trkpt lat="36.9806724" lon="15.0302503"><ele>435.66666666666663</ele><time>2026-03-28T09:08:18.507Z</time></trkpt><trkpt lat="36.9805276" lon="15.0303443"><ele>436.3333333333333</ele><time>2026-03-28T09:08:19.508Z</time></trkpt><trkpt lat="36.9803926" lon="15.0304364"><ele>437.0</ele><time>2026-03-28T09:08:20.507Z</time></trkpt><trkpt lat="36.9802646" lon="15.0305222"><ele>437.0</ele><time>2026-03-28T09:08:21.507Z</time></trkpt><trkpt lat="36.9801579" lon="15.0305899"><ele>437.00000000000006</ele><time>2026-03-28T09:08:22.507Z</time></trkpt><trkpt lat="36.9800598" lon="15.0306546"><ele>437.00000000000006</ele><time>2026-03-28T09:08:23.506Z</time></trkpt><trkpt lat="36.9799728" lon="15.0307143"><ele>437.0</ele><time>2026-03-28T09:08:24.508Z</time></trkpt><trkpt lat="36.9798987" lon="15.030778"><ele>437.0</ele><time>2026-03-28T09:08:25.507Z</time></trkpt><trkpt lat="36.9798479" lon="15.0308563"><ele>437.0</ele><time>2026-03-28T09:08:26.506Z</time></trkpt><trkpt lat="36.979814" lon="15.0309536"><ele>437.00000000000006</ele><time>2026-03-28T09:08:27.506Z</time></trkpt><trkpt lat="36.9797922" lon="15.0310727"><ele>437.00000000000006</ele><time>2026-03-28T09:08:28.505Z</time></trkpt><trkpt lat="36.9797712" lon="15.031207"><ele>437.0</ele><time>2026-03-28T09:08:29.506Z</time></trkpt><trkpt lat="36.9797419" lon="15.0313505"><ele>437.0</ele><time>2026-03-28T09:08:30.508Z</time></trkpt><trkpt lat="36.979712" lon="15.0315039"><ele>436.0</ele><time>2026-03-28T09:08:31.507Z</time></trkpt><trkpt lat="36.9796888" lon="15.0316582"><ele>435.0</ele><time>2026-03-28T09:08:32.506Z</time></trkpt><trkpt lat="36.9796713" lon="15.0318293"><ele>434.0</ele><time>2026-03-28T09:08:33.507Z</time></trkpt><trkpt lat="36.9796558" lon="15.0320091"><ele>433.0</ele><time>2026-03-28T09:08:34.505Z</time></trkpt><trkpt lat="36.9796414" lon="15.0321966"><ele>433.0</ele><time>2026-03-28T09:08:35.507Z</time></trkpt><trkpt lat="36.9796247" lon="15.032381"><ele>433.0</ele><time>2026-03-28T09:08:36.507Z</time></trkpt><trkpt lat="36.97961" lon="15.0325595"><ele>433.0</ele><time>2026-03-28T09:08:37.506Z</time></trkpt><trkpt lat="36.9795974" lon="15.0327282"><ele>433.0</ele><time>2026-03-28T09:08:38.505Z</time></trkpt><trkpt lat="36.9795917" lon="15.0328817"><ele>432.0</ele><time>2026-03-28T09:08:39.506Z</time></trkpt><trkpt lat="36.9795743" lon="15.0330249"><ele>431.0</ele><time>2026-03-28T09:08:40.506Z</time></trkpt><trkpt lat="36.9795426" lon="15.0331717"><ele>430.0</ele><time>2026-03-28T09:08:41.507Z</time></trkpt><trkpt lat="36.9795036" lon="15.0333204"><ele>429.0</ele><time>2026-03-28T09:08:42.506Z</time></trkpt><trkpt lat="36.9794654" lon="15.0334663"><ele>428.5</ele><time>2026-03-28T09:08:43.506Z</time></trkpt><trkpt lat="36.9794198" lon="15.0335994"><ele>428.0</ele><time>2026-03-28T09:08:44.507Z</time></trkpt><trkpt lat="36.979355" lon="15.0337319"><ele>427.5</ele><time>2026-03-28T09:08:45.508Z</time></trkpt><trkpt lat="36.9792787" lon="15.0338754"><ele>427.0</ele><time>2026-03-28T09:08:46.507Z</time></trkpt><trkpt lat="36.9791926" lon="15.0340274"><ele>427.6666666666667</ele><time>2026-03-28T09:08:47.506Z</time></trkpt><trkpt lat="36.9791055" lon="15.0341881"><ele>428.33333333333337</ele><time>2026-03-28T09:08:48.506Z</time></trkpt><trkpt lat="36.9790203" lon="15.0343429"><ele>429.0</ele><time>2026-03-28T09:08:49.506Z</time></trkpt><trkpt lat="36.9789282" lon="15.034494"><ele>429.0</ele><time>2026-03-28T09:08:50.507Z</time></trkpt><trkpt lat="36.9788341" lon="15.0346447"><ele>429.0</ele><time>2026-03-28T09:08:51.508Z</time></trkpt><trkpt lat="36.9787405" lon="15.0348091"><ele>429.0</ele><time>2026-03-28T09:08:52.507Z</time></trkpt><trkpt lat="36.9786475" lon="15.0349803"><ele>427.33333333333337</ele><time>2026-03-28T09:08:53.506Z</time></trkpt><trkpt lat="36.9785542" lon="15.0351654"><ele>425.6666666666667</ele><time>2026-03-28T09:08:54.506Z</time></trkpt><trkpt lat="36.9784662" lon="15.0353407"><ele>424.0</ele><time>2026-03-28T09:08:55.507Z</time></trkpt><trkpt lat="36.9783867" lon="15.0355064"><ele>424.25</ele><time>2026-03-28T09:08:56.507Z</time></trkpt><trkpt lat="36.9783048" lon="15.0356716"><ele>424.5</ele><time>2026-03-28T09:08:57.507Z</time></trkpt><trkpt lat="36.9782271" lon="15.0358267"><ele>424.75</ele><time>2026-03-28T09:08:58.506Z</time></trkpt><trkpt lat="36.9781516" lon="15.03597"><ele>425.0</ele><time>2026-03-28T09:08:59.505Z</time></trkpt><trkpt lat="36.9780717" lon="15.0361139"><ele>425.0</ele><time>2026-03-28T09:09:00.507Z</time></trkpt><trkpt lat="36.9779752" lon="15.0362574"><ele>425.0</ele><time>2026-03-28T09:09:01.507Z</time></trkpt><trkpt lat="36.9778614" lon="15.0364054"><ele>425.0</ele><time>2026-03-28T09:09:02.506Z</time></trkpt><trkpt lat="36.9777392" lon="15.0365554"><ele>424.3333333333333</ele><time>2026-03-28T09:09:03.508Z</time></trkpt><trkpt lat="36.9776063" lon="15.0367088"><ele>423.66666666666663</ele><time>2026-03-28T09:09:04.507Z</time></trkpt><trkpt lat="36.9774669" lon="15.0368606"><ele>423.0</ele><time>2026-03-28T09:09:05.507Z</time></trkpt><trkpt lat="36.9773202" lon="15.0370113"><ele>425.0</ele><time>2026-03-28T09:09:06.507Z</time></trkpt><trkpt lat="36.9771813" lon="15.0371523"><ele>427.0</ele><time>2026-03-28T09:09:07.505Z</time></trkpt><trkpt lat="36.9770526" lon="15.0372853"><ele>429.0</ele><time>2026-03-28T09:09:08.506Z</time></trkpt><trkpt lat="36.9769334" lon="15.0374064"><ele>429.25</ele><time>2026-03-28T09:09:09.506Z</time></trkpt><trkpt lat="36.9768207" lon="15.0375171"><ele>429.5</ele><time>2026-03-28T09:09:10.507Z</time></trkpt><trkpt lat="36.9767119" lon="15.0376254"><ele>429.75</ele><time>2026-03-28T09:09:11.506Z</time></trkpt><trkpt lat="36.9766023" lon="15.0377386"><ele>430.0</ele><time>2026-03-28T09:09:12.506Z</time></trkpt><trkpt lat="36.9764906" lon="15.0378652"><ele>430.0</ele><time>2026-03-28T09:09:13.507Z</time></trkpt><trkpt lat="36.9763788" lon="15.0380029"><ele>430.0</ele><time>2026-03-28T09:09:14.507Z</time></trkpt><trkpt lat="36.9762626" lon="15.0381545"><ele>430.0</ele><time>2026-03-28T09:09:15.508Z</time></trkpt><trkpt lat="36.9761546" lon="15.0383224"><ele>426.6666666666667</ele><time>2026-03-28T09:09:16.508Z</time></trkpt><trkpt lat="36.9760523" lon="15.0385179"><ele>423.33333333333337</ele><time>2026-03-28T09:09:17.507Z</time></trkpt><trkpt lat="36.975957" lon="15.0387227"><ele>420.0</ele><time>2026-03-28T09:09:18.507Z</time></trkpt><trkpt lat="36.9758596" lon="15.0389334"><ele>423.0</ele><time>2026-03-28T09:09:19.507Z</time></trkpt><trkpt lat="36.9757606" lon="15.0391461"><ele>426.0</ele><time>2026-03-28T09:09:20.506Z</time></trkpt><trkpt lat="36.9756664" lon="15.0393494"><ele>429.0</ele><time>2026-03-28T09:09:21.507Z</time></trkpt><trkpt lat="36.9755787" lon="15.03954"><ele>429.0</ele><time>2026-03-28T09:09:22.505Z</time></trkpt><trkpt lat="36.9754902" lon="15.0397347"><ele>429.0</ele><time>2026-03-28T09:09:23.506Z</time></trkpt><trkpt lat="36.9754062" lon="15.0399258"><ele>429.0</ele><time>2026-03-28T09:09:24.505Z</time></trkpt><trkpt lat="36.9753256" lon="15.0401182"><ele>427.33333333333337</ele><time>2026-03-28T09:09:25.507Z</time></trkpt><trkpt lat="36.9752491" lon="15.0403114"><ele>425.6666666666667</ele><time>2026-03-28T09:09:26.508Z</time></trkpt><trkpt lat="36.9751723" lon="15.0405171"><ele>424.0</ele><time>2026-03-28T09:09:27.507Z</time></trkpt><trkpt lat="36.9751025" lon="15.0407317"><ele>425.0</ele><time>2026-03-28T09:09:28.505Z</time></trkpt><trkpt lat="36.975037" lon="15.0409522"><ele>426.0</ele><time>2026-03-28T09:09:29.508Z</time></trkpt><trkpt lat="36.9749691" lon="15.0411801"><ele>427.0</ele><time>2026-03-28T09:09:30.506Z</time></trkpt><trkpt lat="36.9749035" lon="15.0414131"><ele>427.6666666666667</ele><time>2026-03-28T09:09:31.507Z</time></trkpt><trkpt lat="36.974838" lon="15.0416515"><ele>428.33333333333337</ele><time>2026-03-28T09:09:32.507Z</time></trkpt><trkpt lat="36.9747729" lon="15.0418923"><ele>429.0</ele><time>2026-03-28T09:09:33.507Z</time></trkpt><trkpt lat="36.9747094" lon="15.0421279"><ele>429.0</ele><time>2026-03-28T09:09:34.507Z</time></trkpt><trkpt lat="36.974643" lon="15.0423585"><ele>429.0</ele><time>2026-03-28T09:09:35.507Z</time></trkpt><trkpt lat="36.9745799" lon="15.0425886"><ele>429.0</ele><time>2026-03-28T09:09:36.507Z</time></trkpt><trkpt lat="36.9745185" lon="15.0428135"><ele>430.0</ele><time>2026-03-28T09:09:37.507Z</time></trkpt><trkpt lat="36.9744593" lon="15.0430387"><ele>431.0</ele><time>2026-03-28T09:09:38.506Z</time></trkpt><trkpt lat="36.9743999" lon="15.0432591"><ele>432.0</ele><time>2026-03-28T09:09:39.507Z</time></trkpt><trkpt lat="36.9743413" lon="15.043463"><ele>433.33333333333337</ele><time>2026-03-28T09:09:40.506Z</time></trkpt><trkpt lat="36.9742767" lon="15.0436751"><ele>434.6666666666667</ele><time>2026-03-28T09:09:41.506Z</time></trkpt><trkpt lat="36.9742092" lon="15.0438869"><ele>436.0</ele><time>2026-03-28T09:09:42.507Z</time></trkpt><trkpt lat="36.9741378" lon="15.0441048"><ele>438.0</ele><time>2026-03-28T09:09:43.508Z</time></trkpt><trkpt lat="36.9740632" lon="15.0443261"><ele>440.0</ele><time>2026-03-28T09:09:44.506Z</time></trkpt><trkpt lat="36.9739817" lon="15.0445454"><ele>442.0</ele><time>2026-03-28T09:09:45.507Z</time></trkpt><trkpt lat="36.9739004" lon="15.0447622"><ele>443.33333333333337</ele><time>2026-03-28T09:09:46.506Z</time></trkpt><trkpt lat="36.9738196" lon="15.0449839"><ele>444.66666666666663</ele><time>2026-03-28T09:09:47.507Z</time></trkpt><trkpt lat="36.9737411" lon="15.0452023"><ele>446.0</ele><time>2026-03-28T09:09:48.506Z</time></trkpt><trkpt lat="36.9736683" lon="15.0454277"><ele>446.0</ele><time>2026-03-28T09:09:49.506Z</time></trkpt><trkpt lat="36.9736064" lon="15.0456611"><ele>446.0</ele><time>2026-03-28T09:09:50.508Z</time></trkpt><trkpt lat="36.9735503" lon="15.0459006"><ele>446.0</ele><time>2026-03-28T09:09:51.507Z</time></trkpt><trkpt lat="36.9734946" lon="15.0461441"><ele>448.3333333333333</ele><time>2026-03-28T09:09:52.507Z</time></trkpt><trkpt lat="36.9734461" lon="15.0463877"><ele>450.66666666666663</ele><time>2026-03-28T09:09:53.507Z</time></trkpt><trkpt lat="36.9733948" lon="15.0466138"><ele>453.0</ele><time>2026-03-28T09:09:54.505Z</time></trkpt><trkpt lat="36.9733303" lon="15.0468118"><ele>454.0</ele><time>2026-03-28T09:09:55.505Z</time></trkpt><trkpt lat="36.973246" lon="15.0469943"><ele>455.0</ele><time>2026-03-28T09:09:56.506Z</time></trkpt><trkpt lat="36.9731509" lon="15.047177"><ele>456.0</ele><time>2026-03-28T09:09:57.508Z</time></trkpt><trkpt lat="36.9730402" lon="15.0473436"><ele>458.66666666666663</ele><time>2026-03-28T09:09:58.506Z</time></trkpt><trkpt lat="36.972924" lon="15.0475083"><ele>461.3333333333333</ele><time>2026-03-28T09:09:59.506Z</time></trkpt><trkpt lat="36.9727978" lon="15.047653"><ele>464.0</ele><time>2026-03-28T09:10:00.506Z</time></trkpt><trkpt lat="36.9726747" lon="15.0477764"><ele>464.0</ele><time>2026-03-28T09:10:01.506Z</time></trkpt><trkpt lat="36.9725715" lon="15.0478907"><ele>464.0</ele><time>2026-03-28T09:10:02.506Z</time></trkpt><trkpt lat="36.972491" lon="15.047991"><ele>464.0</ele><time>2026-03-28T09:10:03.507Z</time></trkpt><trkpt lat="36.972445" lon="15.0480932"><ele>464.0</ele><time>2026-03-28T09:10:04.508Z</time></trkpt><trkpt lat="36.9724412" lon="15.0482231"><ele>464.0</ele><time>2026-03-28T09:10:05.507Z</time></trkpt><trkpt lat="36.9724723" lon="15.0483733"><ele>465.0</ele><time>2026-03-28T09:10:06.508Z</time></trkpt><trkpt lat="36.9725202" lon="15.0485325"><ele>466.0</ele><time>2026-03-28T09:10:07.507Z</time></trkpt><trkpt lat="36.9725781" lon="15.0486932"><ele>467.0</ele><time>2026-03-28T09:10:08.507Z</time></trkpt><trkpt lat="36.9726395" lon="15.0488438"><ele>468.0</ele><time>2026-03-28T09:10:09.507Z</time></trkpt><trkpt lat="36.9726865" lon="15.0489869"><ele>472.0</ele><time>2026-03-28T09:10:10.507Z</time></trkpt><trkpt lat="36.9727123" lon="15.0491421"><ele>476.0</ele><time>2026-03-28T09:10:11.506Z</time></trkpt><trkpt lat="36.9727206" lon="15.049296"><ele>480.0</ele><time>2026-03-28T09:10:12.507Z</time></trkpt><trkpt lat="36.9727118" lon="15.0494508"><ele>484.0</ele><time>2026-03-28T09:10:13.507Z</time></trkpt><trkpt lat="36.9726825" lon="15.0496255"><ele>484.0</ele><time>2026-03-28T09:10:14.506Z</time></trkpt><trkpt lat="36.9726458" lon="15.0498197"><ele>484.0</ele><time>2026-03-28T09:10:15.506Z</time></trkpt><trkpt lat="36.9726136" lon="15.050017"><ele>484.0</ele><time>2026-03-28T09:10:16.505Z</time></trkpt><trkpt lat="36.9725837" lon="15.0502125"><ele>485.33333333333337</ele><time>2026-03-28T09:10:17.507Z</time></trkpt><trkpt lat="36.9725522" lon="15.0504311"><ele>486.66666666666663</ele><time>2026-03-28T09:10:18.507Z</time></trkpt><trkpt lat="36.9725174" lon="15.0506592"><ele>488.0</ele><time>2026-03-28T09:10:19.508Z</time></trkpt><trkpt lat="36.9724814" lon="15.0508945"><ele>484.3333333333333</ele><time>2026-03-28T09:10:20.505Z</time></trkpt><trkpt lat="36.9724435" lon="15.0511322"><ele>480.66666666666663</ele><time>2026-03-28T09:10:21.507Z</time></trkpt><trkpt lat="36.9724056" lon="15.0513634"><ele>477.0</ele><time>2026-03-28T09:10:22.505Z</time></trkpt><trkpt lat="36.9723685" lon="15.0515995"><ele>478.0</ele><time>2026-03-28T09:10:23.507Z</time></trkpt><trkpt lat="36.9723305" lon="15.0518297"><ele>479.0</ele><time>2026-03-28T09:10:24.508Z</time></trkpt><trkpt lat="36.9722956" lon="15.0520431"><ele>480.0</ele><time>2026-03-28T09:10:25.507Z</time></trkpt><trkpt lat="36.9722651" lon="15.0522399"><ele>480.0</ele><time>2026-03-28T09:10:26.507Z</time></trkpt><trkpt lat="36.9722342" lon="15.0524202"><ele>480.0</ele><time>2026-03-28T09:10:27.508Z</time></trkpt><trkpt lat="36.9721986" lon="15.052584"><ele>480.0</ele><time>2026-03-28T09:10:28.507Z</time></trkpt><trkpt lat="36.9721409" lon="15.0527454"><ele>480.0</ele><time>2026-03-28T09:10:29.506Z</time></trkpt><trkpt lat="36.9720584" lon="15.0529085"><ele>481.0</ele><time>2026-03-28T09:10:30.506Z</time></trkpt><trkpt lat="36.9719667" lon="15.0530757"><ele>482.0</ele><time>2026-03-28T09:10:31.506Z</time></trkpt><trkpt lat="36.9718734" lon="15.0532235"><ele>483.0</ele><time>2026-03-28T09:10:32.507Z</time></trkpt><trkpt lat="36.9717909" lon="15.0533521"><ele>484.0</ele><time>2026-03-28T09:10:33.506Z</time></trkpt><trkpt lat="36.9717333" lon="15.0534898"><ele>485.0</ele><time>2026-03-28T09:10:34.507Z</time></trkpt><trkpt lat="36.9716982" lon="15.0536573"><ele>486.0</ele><time>2026-03-28T09:10:35.507Z</time></trkpt><trkpt lat="36.9716622" lon="15.0538381"><ele>487.0</ele><time>2026-03-28T09:10:36.506Z</time></trkpt><trkpt lat="36.9716131" lon="15.0540292"><ele>488.0</ele><time>2026-03-28T09:10:37.506Z</time></trkpt><trkpt lat="36.9715622" lon="15.0542238"><ele>485.3333333333333</ele><time>2026-03-28T09:10:38.506Z</time></trkpt><trkpt lat="36.9715125" lon="15.0544179"><ele>482.66666666666663</ele><time>2026-03-28T09:10:39.507Z</time></trkpt><trkpt lat="36.9714637" lon="15.0546142"><ele>480.0</ele><time>2026-03-28T09:10:40.507Z</time></trkpt><trkpt lat="36.9714124" lon="15.0548198"><ele>480.0</ele><time>2026-03-28T09:10:41.505Z</time></trkpt><trkpt lat="36.9713591" lon="15.0550211"><ele>480.0</ele><time>2026-03-28T09:10:42.506Z</time></trkpt><trkpt lat="36.9713109" lon="15.0552076"><ele>480.0</ele><time>2026-03-28T09:10:43.505Z</time></trkpt><trkpt lat="36.9712653" lon="15.055378"><ele>480.0</ele><time>2026-03-28T09:10:44.506Z</time></trkpt><trkpt lat="36.9712215" lon="15.0555495"><ele>480.0</ele><time>2026-03-28T09:10:45.505Z</time></trkpt><trkpt lat="36.9711836" lon="15.0557361"><ele>480.0</ele><time>2026-03-28T09:10:46.506Z</time></trkpt><trkpt lat="36.9711548" lon="15.0559397"><ele>478.33333333333337</ele><time>2026-03-28T09:10:47.507Z</time></trkpt><trkpt lat="36.9711248" lon="15.0561565"><ele>476.6666666666667</ele><time>2026-03-28T09:10:48.507Z</time></trkpt><trkpt lat="36.9710924" lon="15.0563767"><ele>475.0</ele><time>2026-03-28T09:10:49.508Z</time></trkpt><trkpt lat="36.9710593" lon="15.0565883"><ele>472.6666666666667</ele><time>2026-03-28T09:10:50.506Z</time></trkpt><trkpt lat="36.971025" lon="15.0567873"><ele>470.33333333333337</ele><time>2026-03-28T09:10:51.506Z</time></trkpt><trkpt lat="36.9709929" lon="15.0569762"><ele>468.0</ele><time>2026-03-28T09:10:52.507Z</time></trkpt><trkpt lat="36.9709525" lon="15.0571522"><ele>468.0</ele><time>2026-03-28T09:10:53.508Z</time></trkpt><trkpt lat="36.9708995" lon="15.0573167"><ele>468.0</ele><time>2026-03-28T09:10:54.506Z</time></trkpt><trkpt lat="36.9708355" lon="15.0574817"><ele>468.0</ele><time>2026-03-28T09:10:55.506Z</time></trkpt><trkpt lat="36.9707565" lon="15.0576493"><ele>468.0</ele><time>2026-03-28T09:10:56.507Z</time></trkpt><trkpt lat="36.9706709" lon="15.057825"><ele>469.0</ele><time>2026-03-28T09:10:57.508Z</time></trkpt><trkpt lat="36.9705884" lon="15.0579948"><ele>470.0</ele><time>2026-03-28T09:10:58.507Z</time></trkpt><trkpt lat="36.970506" lon="15.0581522"><ele>471.0</ele><time>2026-03-28T09:10:59.506Z</time></trkpt><trkpt lat="36.9704281" lon="15.0583056"><ele>471.0</ele><time>2026-03-28T09:11:00.508Z</time></trkpt><trkpt lat="36.9703627" lon="15.058456"><ele>471.0</ele><time>2026-03-28T09:11:01.506Z</time></trkpt><trkpt lat="36.9703172" lon="15.0586157"><ele>471.0</ele><time>2026-03-28T09:11:02.507Z</time></trkpt><trkpt lat="36.9702947" lon="15.0587896"><ele>471.0</ele><time>2026-03-28T09:11:03.506Z</time></trkpt><trkpt lat="36.9702985" lon="15.0589779"><ele>472.0</ele><time>2026-03-28T09:11:04.507Z</time></trkpt><trkpt lat="36.9703256" lon="15.059175"><ele>473.0</ele><time>2026-03-28T09:11:05.506Z</time></trkpt><trkpt lat="36.97037" lon="15.0593692"><ele>474.0</ele><time>2026-03-28T09:11:06.507Z</time></trkpt><trkpt lat="36.9704221" lon="15.0595655"><ele>474.0</ele><time>2026-03-28T09:11:07.506Z</time></trkpt><trkpt lat="36.9704745" lon="15.0597664"><ele>474.0</ele><time>2026-03-28T09:11:08.505Z</time></trkpt><trkpt lat="36.970525" lon="15.0599735"><ele>474.0</ele><time>2026-03-28T09:11:09.506Z</time></trkpt><trkpt lat="36.9705777" lon="15.0601857"><ele>476.0</ele><time>2026-03-28T09:11:10.506Z</time></trkpt><trkpt lat="36.970632" lon="15.0603961"><ele>478.0</ele><time>2026-03-28T09:11:11.507Z</time></trkpt><trkpt lat="36.9706824" lon="15.0605948"><ele>480.0</ele><time>2026-03-28T09:11:12.507Z</time></trkpt><trkpt lat="36.970721" lon="15.0607708"><ele>481.5</ele><time>2026-03-28T09:11:13.506Z</time></trkpt><trkpt lat="36.9707607" lon="15.0609438"><ele>483.0</ele><time>2026-03-28T09:11:14.507Z</time></trkpt><trkpt lat="36.9708013" lon="15.0611168"><ele>484.5</ele><time>2026-03-28T09:11:15.507Z</time></trkpt><trkpt lat="36.9708431" lon="15.0612906"><ele>486.0</ele><time>2026-03-28T09:11:16.507Z</time></trkpt><trkpt lat="36.9708776" lon="15.0614611"><ele>487.25</ele><time>2026-03-28T09:11:17.506Z</time></trkpt><trkpt lat="36.9708898" lon="15.061636"><ele>488.5</ele><time>2026-03-28T09:11:18.506Z</time></trkpt><trkpt lat="36.9708838" lon="15.0618217"><ele>489.75</ele><time>2026-03-28T09:11:19.505Z</time></trkpt><trkpt lat="36.9708695" lon="15.0619988"><ele>491.0</ele><time>2026-03-28T09:11:20.508Z</time></trkpt><trkpt lat="36.9708556" lon="15.0621593"><ele>491.0</ele><time>2026-03-28T09:11:21.505Z</time></trkpt><trkpt lat="36.9708461" lon="15.0622937"><ele>491.0</ele><time>2026-03-28T09:11:22.506Z</time></trkpt><trkpt lat="36.970847" lon="15.0623958"><ele>491.0</ele><time>2026-03-28T09:11:23.507Z</time></trkpt><trkpt lat="36.9708851" lon="15.0624751"><ele>491.0</ele><time>2026-03-28T09:11:24.507Z</time></trkpt><trkpt lat="36.9709635" lon="15.0625315"><ele>491.0</ele><time>2026-03-28T09:11:25.506Z</time></trkpt><trkpt lat="36.9710733" lon="15.062571"><ele>493.25</ele><time>2026-03-28T09:11:26.506Z</time></trkpt><trkpt lat="36.971193" lon="15.0626099"><ele>495.5</ele><time>2026-03-28T09:11:27.506Z</time></trkpt><trkpt lat="36.9713099" lon="15.0626504"><ele>497.75</ele><time>2026-03-28T09:11:28.506Z</time></trkpt><trkpt lat="36.9714289" lon="15.0626955"><ele>500.0</ele><time>2026-03-28T09:11:29.508Z</time></trkpt><trkpt lat="36.9715374" lon="15.0627427"><ele>500.0</ele><time>2026-03-28T09:11:30.508Z</time></trkpt><trkpt lat="36.9716362" lon="15.0628117"><ele>500.0</ele><time>2026-03-28T09:11:31.506Z</time></trkpt><trkpt lat="36.9717306" lon="15.0629182"><ele>500.0</ele><time>2026-03-28T09:11:32.507Z</time></trkpt><trkpt lat="36.9718236" lon="15.0630369"><ele>500.0</ele><time>2026-03-28T09:11:33.507Z</time></trkpt><trkpt lat="36.9719066" lon="15.0631569"><ele>499.5</ele><time>2026-03-28T09:11:34.507Z</time></trkpt><trkpt lat="36.9719718" lon="15.063303"><ele>499.0</ele><time>2026-03-28T09:11:35.507Z</time></trkpt><trkpt lat="36.9720206" lon="15.0634771"><ele>498.5</ele><time>2026-03-28T09:11:36.507Z</time></trkpt><trkpt lat="36.9720649" lon="15.0636673"><ele>498.0</ele><time>2026-03-28T09:11:37.507Z</time></trkpt><trkpt lat="36.9720981" lon="15.0638739"><ele>498.0</ele><time>2026-03-28T09:11:38.506Z</time></trkpt><trkpt lat="36.9721228" lon="15.0640698"><ele>498.0</ele><time>2026-03-28T09:11:39.505Z</time></trkpt><trkpt lat="36.9721387" lon="15.0642591"><ele>498.0</ele><time>2026-03-28T09:11:40.507Z</time></trkpt><trkpt lat="36.9721527" lon="15.0644358"><ele>499.5</ele><time>2026-03-28T09:11:41.505Z</time></trkpt><trkpt lat="36.9721687" lon="15.0646221"><ele>501.0</ele><time>2026-03-28T09:11:42.505Z</time></trkpt><trkpt lat="36.9721853" lon="15.064793"><ele>502.5</ele><time>2026-03-28T09:11:43.505Z</time></trkpt><trkpt lat="36.9721906" lon="15.0649605"><ele>504.0</ele><time>2026-03-28T09:11:44.507Z</time></trkpt><trkpt lat="36.9721695" lon="15.0651133"><ele>504.0</ele><time>2026-03-28T09:11:45.507Z</time></trkpt><trkpt lat="36.9721146" lon="15.0652771"><ele>504.0</ele><time>2026-03-28T09:11:46.506Z</time></trkpt><trkpt lat="36.9720541" lon="15.0654475"><ele>504.0</ele><time>2026-03-28T09:11:47.507Z</time></trkpt><trkpt lat="36.9719778" lon="15.0656356"><ele>502.33333333333337</ele><time>2026-03-28T09:11:48.508Z</time></trkpt><trkpt lat="36.9719104" lon="15.0658397"><ele>500.6666666666667</ele><time>2026-03-28T09:11:49.507Z</time></trkpt><trkpt lat="36.9718593" lon="15.0660672"><ele>499.0</ele><time>2026-03-28T09:11:50.506Z</time></trkpt><trkpt lat="36.9718151" lon="15.0662777"><ele>499.0</ele><time>2026-03-28T09:11:51.507Z</time></trkpt><trkpt lat="36.9717759" lon="15.0664854"><ele>499.0</ele><time>2026-03-28T09:11:52.506Z</time></trkpt><trkpt lat="36.9717398" lon="15.0666792"><ele>499.0</ele><time>2026-03-28T09:11:53.508Z</time></trkpt><trkpt lat="36.9717041" lon="15.0668691"><ele>500.0</ele><time>2026-03-28T09:11:54.507Z</time></trkpt><trkpt lat="36.9716669" lon="15.0670569"><ele>501.0</ele><time>2026-03-28T09:11:55.507Z</time></trkpt><trkpt lat="36.9716188" lon="15.067252"><ele>502.0</ele><time>2026-03-28T09:11:56.507Z</time></trkpt><trkpt lat="36.9715492" lon="15.0674575"><ele>502.0</ele><time>2026-03-28T09:11:57.507Z</time></trkpt><trkpt lat="36.9714647" lon="15.0676655"><ele>502.0</ele><time>2026-03-28T09:11:58.505Z</time></trkpt><trkpt lat="36.9713725" lon="15.067886"><ele>502.0</ele><time>2026-03-28T09:11:59.506Z</time></trkpt><trkpt lat="36.9712798" lon="15.0681161"><ele>500.6666666666667</ele><time>2026-03-28T09:12:00.507Z</time></trkpt><trkpt lat="36.9711826" lon="15.0683446"><ele>499.33333333333337</ele><time>2026-03-28T09:12:01.506Z</time></trkpt><trkpt lat="36.9710897" lon="15.0685589"><ele>498.0</ele><time>2026-03-28T09:12:02.507Z</time></trkpt><trkpt lat="36.9709952" lon="15.0687606"><ele>498.0</ele><time>2026-03-28T09:12:03.505Z</time></trkpt><trkpt lat="36.9708997" lon="15.0689361"><ele>498.0</ele><time>2026-03-28T09:12:04.507Z</time></trkpt><trkpt lat="36.9707888" lon="15.0690846"><ele>498.0</ele><time>2026-03-28T09:12:05.507Z</time></trkpt><trkpt lat="36.9706649" lon="15.0692181"><ele>497.5</ele><time>2026-03-28T09:12:06.507Z</time></trkpt><trkpt lat="36.9705473" lon="15.0693347"><ele>497.0</ele><time>2026-03-28T09:12:07.507Z</time></trkpt><trkpt lat="36.970432" lon="15.0694479"><ele>496.5</ele><time>2026-03-28T09:12:08.507Z</time></trkpt><trkpt lat="36.9703333" lon="15.0695712"><ele>496.0</ele><time>2026-03-28T09:12:09.507Z</time></trkpt><trkpt lat="36.9702537" lon="15.0697148"><ele>496.0</ele><time>2026-03-28T09:12:10.507Z</time></trkpt><trkpt lat="36.9701878" lon="15.0698796"><ele>496.0</ele><time>2026-03-28T09:12:11.506Z</time></trkpt><trkpt lat="36.9701498" lon="15.0700518"><ele>496.0</ele><time>2026-03-28T09:12:12.506Z</time></trkpt><trkpt lat="36.9701168" lon="15.0702258"><ele>496.0</ele><time>2026-03-28T09:12:13.506Z</time></trkpt><trkpt lat="36.970076" lon="15.0703887"><ele>495.75</ele><time>2026-03-28T09:12:14.506Z</time></trkpt><trkpt lat="36.9700153" lon="15.0705407"><ele>495.5</ele><time>2026-03-28T09:12:15.507Z</time></trkpt><trkpt lat="36.9699186" lon="15.0706821"><ele>495.25</ele><time>2026-03-28T09:12:16.507Z</time></trkpt><trkpt lat="36.9698065" lon="15.0708097"><ele>495.0</ele><time>2026-03-28T09:12:17.506Z</time></trkpt><trkpt lat="36.9697037" lon="15.070934"><ele>494.25</ele><time>2026-03-28T09:12:18.506Z</time></trkpt><trkpt lat="36.9696037" lon="15.0710606"><ele>493.5</ele><time>2026-03-28T09:12:19.506Z</time></trkpt><trkpt lat="36.9695216" lon="15.0711901"><ele>492.75</ele><time>2026-03-28T09:12:20.505Z</time></trkpt><trkpt lat="36.9694655" lon="15.0713388"><ele>492.0</ele><time>2026-03-28T09:12:21.506Z</time></trkpt><trkpt lat="36.9694284" lon="15.0715062"><ele>490.33333333333337</ele><time>2026-03-28T09:12:22.507Z</time></trkpt><trkpt lat="36.9694048" lon="15.0716895"><ele>488.6666666666667</ele><time>2026-03-28T09:12:23.506Z</time></trkpt><trkpt lat="36.9693803" lon="15.0718862"><ele>487.0</ele><time>2026-03-28T09:12:24.506Z</time></trkpt><trkpt lat="36.9693538" lon="15.0720946"><ele>487.0</ele><time>2026-03-28T09:12:25.506Z</time></trkpt><trkpt lat="36.9693213" lon="15.0722995"><ele>487.0</ele><time>2026-03-28T09:12:26.506Z</time></trkpt><trkpt lat="36.9692884" lon="15.0725139"><ele>487.0</ele><time>2026-03-28T09:12:27.507Z</time></trkpt><trkpt lat="36.9692521" lon="15.0727286"><ele>487.6666666666667</ele><time>2026-03-28T09:12:28.507Z</time></trkpt><trkpt lat="36.96922" lon="15.0729335"><ele>488.33333333333337</ele><time>2026-03-28T09:12:29.506Z</time></trkpt><trkpt lat="36.9691894" lon="15.0731288"><ele>489.0</ele><time>2026-03-28T09:12:30.507Z</time></trkpt><trkpt lat="36.9691463" lon="15.073319"><ele>489.0</ele><time>2026-03-28T09:12:31.506Z</time></trkpt><trkpt lat="36.9690955" lon="15.073505"><ele>489.0</ele><time>2026-03-28T09:12:32.506Z</time></trkpt><trkpt lat="36.9690315" lon="15.0736877"><ele>489.0</ele><time>2026-03-28T09:12:33.506Z</time></trkpt><trkpt lat="36.9689673" lon="15.0738634"><ele>489.0</ele><time>2026-03-28T09:12:34.506Z</time></trkpt><trkpt lat="36.9688978" lon="15.0740245"><ele>489.0</ele><time>2026-03-28T09:12:35.506Z</time></trkpt><trkpt lat="36.9688238" lon="15.0741892"><ele>489.0</ele><time>2026-03-28T09:12:36.507Z</time></trkpt><trkpt lat="36.9687508" lon="15.0743463"><ele>489.0</ele><time>2026-03-28T09:12:37.506Z</time></trkpt><trkpt lat="36.9686814" lon="15.0745014"><ele>487.66666666666663</ele><time>2026-03-28T09:12:38.507Z</time></trkpt><trkpt lat="36.9686317" lon="15.0746755"><ele>486.3333333333333</ele><time>2026-03-28T09:12:39.506Z</time></trkpt><trkpt lat="36.9685993" lon="15.0748699"><ele>485.0</ele><time>2026-03-28T09:12:40.505Z</time></trkpt><trkpt lat="36.9685767" lon="15.0750779"><ele>484.0</ele><time>2026-03-28T09:12:41.506Z</time></trkpt><trkpt lat="36.9685546" lon="15.075297"><ele>483.0</ele><time>2026-03-28T09:12:42.507Z</time></trkpt><trkpt lat="36.9685293" lon="15.0755157"><ele>482.0</ele><time>2026-03-28T09:12:43.506Z</time></trkpt><trkpt lat="36.9685124" lon="15.0757289"><ele>482.25</ele><time>2026-03-28T09:12:44.506Z</time></trkpt><trkpt lat="36.9684947" lon="15.0759406"><ele>482.5</ele><time>2026-03-28T09:12:45.506Z</time></trkpt><trkpt lat="36.9684924" lon="15.0761161"><ele>482.75</ele><time>2026-03-28T09:12:46.507Z</time></trkpt><trkpt lat="36.9685111" lon="15.0762855"><ele>483.0</ele><time>2026-03-28T09:12:47.508Z</time></trkpt><trkpt lat="36.9685515" lon="15.0764394"><ele>483.0</ele><time>2026-03-28T09:12:48.506Z</time></trkpt><trkpt lat="36.96864" lon="15.0765989"><ele>483.0</ele><time>2026-03-28T09:12:49.507Z</time></trkpt><trkpt lat="36.9687219" lon="15.0767698"><ele>483.0</ele><time>2026-03-28T09:12:50.506Z</time></trkpt><trkpt lat="36.9688123" lon="15.0769417"><ele>483.25</ele><time>2026-03-28T09:12:51.505Z</time></trkpt><trkpt lat="36.9688978" lon="15.0770996"><ele>483.5</ele><time>2026-03-28T09:12:52.506Z</time></trkpt><trkpt lat="36.9689733" lon="15.0772484"><ele>483.75</ele><time>2026-03-28T09:12:53.506Z</time></trkpt><trkpt lat="36.9690415" lon="15.0773762"><ele>484.0</ele><time>2026-03-28T09:12:54.506Z</time></trkpt><trkpt lat="36.9690952" lon="15.0775076"><ele>484.5</ele><time>2026-03-28T09:12:55.506Z</time></trkpt><trkpt lat="36.9691097" lon="15.0776345"><ele>485.0</ele><time>2026-03-28T09:12:56.507Z</time></trkpt><trkpt lat="36.9690866" lon="15.0777894"><ele>485.5</ele><time>2026-03-28T09:12:57.506Z</time></trkpt><trkpt lat="36.9690328" lon="15.0779647"><ele>486.0</ele><time>2026-03-28T09:12:58.506Z</time></trkpt><trkpt lat="36.9689895" lon="15.0781374"><ele>487.33333333333337</ele><time>2026-03-28T09:12:59.507Z</time></trkpt><trkpt lat="36.9689366" lon="15.0783286"><ele>488.6666666666667</ele><time>2026-03-28T09:13:00.506Z</time></trkpt><trkpt lat="36.9688755" lon="15.0785248"><ele>490.0</ele><time>2026-03-28T09:13:01.505Z</time></trkpt><trkpt lat="36.9688221" lon="15.078729"><ele>490.0</ele><time>2026-03-28T09:13:02.506Z</time></trkpt><trkpt lat="36.9687683" lon="15.078917"><ele>490.0</ele><time>2026-03-28T09:13:03.506Z</time></trkpt><trkpt lat="36.9687194" lon="15.0791069"><ele>490.0</ele><time>2026-03-28T09:13:04.506Z</time></trkpt><trkpt lat="36.968677" lon="15.0793101"><ele>490.33333333333337</ele><time>2026-03-28T09:13:05.507Z</time></trkpt><trkpt lat="36.9686363" lon="15.0795132"><ele>490.66666666666663</ele><time>2026-03-28T09:13:06.506Z</time></trkpt><trkpt lat="36.9686084" lon="15.07974"><ele>491.0</ele><time>2026-03-28T09:13:07.506Z</time></trkpt><trkpt lat="36.9685835" lon="15.0799662"><ele>491.0</ele><time>2026-03-28T09:13:08.507Z</time></trkpt><trkpt lat="36.9685548" lon="15.0801889"><ele>491.0</ele><time>2026-03-28T09:13:09.506Z</time></trkpt><trkpt lat="36.9685254" lon="15.0803948"><ele>491.0</ele><time>2026-03-28T09:13:10.507Z</time></trkpt><trkpt lat="36.9684857" lon="15.0805981"><ele>490.66666666666663</ele><time>2026-03-28T09:13:11.506Z</time></trkpt><trkpt lat="36.9684276" lon="15.0807952"><ele>490.33333333333337</ele><time>2026-03-28T09:13:12.506Z</time></trkpt><trkpt lat="36.9683661" lon="15.0809853"><ele>490.0</ele><time>2026-03-28T09:13:13.507Z</time></trkpt><trkpt lat="36.9682975" lon="15.0811849"><ele>490.6666666666667</ele><time>2026-03-28T09:13:14.506Z</time></trkpt><trkpt lat="36.9682319" lon="15.0813877"><ele>491.33333333333337</ele><time>2026-03-28T09:13:15.507Z</time></trkpt><trkpt lat="36.968164" lon="15.0815951"><ele>492.0</ele><time>2026-03-28T09:13:16.507Z</time></trkpt><trkpt lat="36.9680936" lon="15.0817977"><ele>493.33333333333337</ele><time>2026-03-28T09:13:17.506Z</time></trkpt><trkpt lat="36.9680275" lon="15.0819985"><ele>494.6666666666667</ele><time>2026-03-28T09:13:18.507Z</time></trkpt><trkpt lat="36.9679627" lon="15.0821834"><ele>496.0</ele><time>2026-03-28T09:13:19.506Z</time></trkpt><trkpt lat="36.9679078" lon="15.0823596"><ele>496.75</ele><time>2026-03-28T09:13:20.505Z</time></trkpt><trkpt lat="36.9678446" lon="15.0825259"><ele>497.5</ele><time>2026-03-28T09:13:21.506Z</time></trkpt><trkpt lat="36.9677744" lon="15.08269"><ele>498.25</ele><time>2026-03-28T09:13:22.507Z</time></trkpt><trkpt lat="36.9676936" lon="15.0828532"><ele>499.0</ele><time>2026-03-28T09:13:23.506Z</time></trkpt><trkpt lat="36.9675923" lon="15.0830055"><ele>499.33333333333337</ele><time>2026-03-28T09:13:24.507Z</time></trkpt><trkpt lat="36.9674958" lon="15.0831662"><ele>499.66666666666663</ele><time>2026-03-28T09:13:25.506Z</time></trkpt><trkpt lat="36.9673911" lon="15.0833261"><ele>500.0</ele><time>2026-03-28T09:13:26.507Z</time></trkpt><trkpt lat="36.9672773" lon="15.0834867"><ele>500.66666666666663</ele><time>2026-03-28T09:13:27.505Z</time></trkpt><trkpt lat="36.9671544" lon="15.0836439"><ele>501.33333333333337</ele><time>2026-03-28T09:13:28.505Z</time></trkpt><trkpt lat="36.9670163" lon="15.0838053"><ele>502.0</ele><time>2026-03-28T09:13:29.507Z</time></trkpt><trkpt lat="36.9668796" lon="15.0839664"><ele>501.33333333333337</ele><time>2026-03-28T09:13:30.505Z</time></trkpt><trkpt lat="36.9667489" lon="15.0841139"><ele>500.66666666666663</ele><time>2026-03-28T09:13:31.507Z</time></trkpt><trkpt lat="36.9666164" lon="15.0842572"><ele>500.0</ele><time>2026-03-28T09:13:32.506Z</time></trkpt><trkpt lat="36.9664884" lon="15.0844004"><ele>500.0</ele><time>2026-03-28T09:13:33.506Z</time></trkpt><trkpt lat="36.9663647" lon="15.0845421"><ele>500.0</ele><time>2026-03-28T09:13:34.507Z</time></trkpt><trkpt lat="36.9662408" lon="15.0846749"><ele>500.0</ele><time>2026-03-28T09:13:35.506Z</time></trkpt><trkpt lat="36.9661222" lon="15.084804"><ele>500.0</ele><time>2026-03-28T09:13:36.506Z</time></trkpt><trkpt lat="36.9660155" lon="15.0849281"><ele>500.0</ele><time>2026-03-28T09:13:37.506Z</time></trkpt><trkpt lat="36.965922" lon="15.0850412"><ele>500.0</ele><time>2026-03-28T09:13:38.506Z</time></trkpt><trkpt lat="36.9658409" lon="15.0851382"><ele>500.0</ele><time>2026-03-28T09:13:39.505Z</time></trkpt><trkpt lat="36.9657772" lon="15.0852102"><ele>499.6</ele><time>2026-03-28T09:13:40.506Z</time></trkpt><trkpt lat="36.9657187" lon="15.0852554"><ele>499.2</ele><time>2026-03-28T09:13:41.507Z</time></trkpt><trkpt lat="36.9656373" lon="15.0852171"><ele>498.79999999999995</ele><time>2026-03-28T09:13:43.507Z</time></trkpt><trkpt lat="36.965584" lon="15.0850822"><ele>498.4</ele><time>2026-03-28T09:13:45.506Z</time></trkpt><trkpt lat="36.9655785" lon="15.0849749"><ele>498.0</ele><time>2026-03-28T09:13:46.507Z</time></trkpt><trkpt lat="36.9655735" lon="15.084859"><ele>498.0</ele><time>2026-03-28T09:13:47.506Z</time></trkpt><trkpt lat="36.9655671" lon="15.084742"><ele>497.99999999999994</ele><time>2026-03-28T09:13:48.506Z</time></trkpt><trkpt lat="36.9655682" lon="15.0846163"><ele>497.99999999999994</ele><time>2026-03-28T09:13:49.507Z</time></trkpt><trkpt lat="36.9655802" lon="15.084476"><ele>498.0</ele><time>2026-03-28T09:13:50.506Z</time></trkpt><trkpt lat="36.9655983" lon="15.0843381"><ele>498.0</ele><time>2026-03-28T09:13:51.506Z</time></trkpt><trkpt lat="36.9656209" lon="15.0842014"><ele>497.79999999999995</ele><time>2026-03-28T09:13:52.506Z</time></trkpt><trkpt lat="36.9656527" lon="15.0840623"><ele>497.59999999999997</ele><time>2026-03-28T09:13:53.507Z</time></trkpt><trkpt lat="36.9656809" lon="15.0839256"><ele>497.40000000000003</ele><time>2026-03-28T09:13:54.507Z</time></trkpt><trkpt lat="36.9657007" lon="15.0837902"><ele>497.20000000000005</ele><time>2026-03-28T09:13:55.506Z</time></trkpt><trkpt lat="36.9657149" lon="15.0836551"><ele>497.0</ele><time>2026-03-28T09:13:56.507Z</time></trkpt><trkpt lat="36.965714" lon="15.0835227"><ele>497.0</ele><time>2026-03-28T09:13:57.507Z</time></trkpt><trkpt lat="36.9657075" lon="15.0833933"><ele>497.00000000000006</ele><time>2026-03-28T09:13:58.505Z</time></trkpt><trkpt lat="36.9656959" lon="15.0832565"><ele>497.00000000000006</ele><time>2026-03-28T09:13:59.506Z</time></trkpt><trkpt lat="36.9656709" lon="15.0831269"><ele>497.0</ele><time>2026-03-28T09:14:00.506Z</time></trkpt><trkpt lat="36.9656399" lon="15.0829942"><ele>497.0</ele><time>2026-03-28T09:14:01.505Z</time></trkpt><trkpt lat="36.9655997" lon="15.082863"><ele>494.75</ele><time>2026-03-28T09:14:02.506Z</time></trkpt><trkpt lat="36.9655555" lon="15.0827263"><ele>492.5</ele><time>2026-03-28T09:14:03.506Z</time></trkpt><trkpt lat="36.9655091" lon="15.0825871"><ele>490.25</ele><time>2026-03-28T09:14:04.507Z</time></trkpt><trkpt lat="36.9654585" lon="15.0824514"><ele>488.0</ele><time>2026-03-28T09:14:05.506Z</time></trkpt><trkpt lat="36.9654177" lon="15.0823045"><ele>485.5</ele><time>2026-03-28T09:14:06.505Z</time></trkpt><trkpt lat="36.9653728" lon="15.0821487"><ele>483.0</ele><time>2026-03-28T09:14:07.505Z</time></trkpt><trkpt lat="36.9653279" lon="15.0819855"><ele>480.5</ele><time>2026-03-28T09:14:08.507Z</time></trkpt><trkpt lat="36.9652873" lon="15.0818213"><ele>478.0</ele><time>2026-03-28T09:14:09.506Z</time></trkpt><trkpt lat="36.9652567" lon="15.0816505"><ele>476.0</ele><time>2026-03-28T09:14:10.506Z</time></trkpt><trkpt lat="36.9652351" lon="15.0814854"><ele>474.0</ele><time>2026-03-28T09:14:11.506Z</time></trkpt><trkpt lat="36.9652205" lon="15.0813134"><ele>472.0</ele><time>2026-03-28T09:14:12.505Z</time></trkpt><trkpt lat="36.96521" lon="15.0811415"><ele>470.0</ele><time>2026-03-28T09:14:13.506Z</time></trkpt><trkpt lat="36.9652016" lon="15.0809744"><ele>470.0</ele><time>2026-03-28T09:14:14.506Z</time></trkpt><trkpt lat="36.9651945" lon="15.08081"><ele>470.0</ele><time>2026-03-28T09:14:15.505Z</time></trkpt><trkpt lat="36.965185" lon="15.0806504"><ele>470.0</ele><time>2026-03-28T09:14:16.504Z</time></trkpt><trkpt lat="36.9651721" lon="15.0804924"><ele>470.0</ele><time>2026-03-28T09:14:17.506Z</time></trkpt><trkpt lat="36.9651515" lon="15.0803285"><ele>470.0</ele><time>2026-03-28T09:14:18.506Z</time></trkpt><trkpt lat="36.9651209" lon="15.0801589"><ele>470.0</ele><time>2026-03-28T09:14:19.507Z</time></trkpt><trkpt lat="36.9650825" lon="15.0799894"><ele>470.0</ele><time>2026-03-28T09:14:20.505Z</time></trkpt><trkpt lat="36.9650489" lon="15.0798233"><ele>470.0</ele><time>2026-03-28T09:14:21.507Z</time></trkpt><trkpt lat="36.9650152" lon="15.0796571"><ele>468.75</ele><time>2026-03-28T09:14:22.506Z</time></trkpt><trkpt lat="36.9649793" lon="15.0794953"><ele>467.5</ele><time>2026-03-28T09:14:23.506Z</time></trkpt><trkpt lat="36.9649367" lon="15.0793294"><ele>466.25</ele><time>2026-03-28T09:14:24.507Z</time></trkpt><trkpt lat="36.9648922" lon="15.079159"><ele>465.0</ele><time>2026-03-28T09:14:25.506Z</time></trkpt><trkpt lat="36.9648496" lon="15.0790076"><ele>465.0</ele><time>2026-03-28T09:14:26.505Z</time></trkpt><trkpt lat="36.9648069" lon="15.0788596"><ele>465.0</ele><time>2026-03-28T09:14:27.506Z</time></trkpt><trkpt lat="36.9647646" lon="15.0787185"><ele>465.0</ele><time>2026-03-28T09:14:28.507Z</time></trkpt><trkpt lat="36.9647196" lon="15.0785748"><ele>465.0</ele><time>2026-03-28T09:14:29.507Z</time></trkpt><trkpt lat="36.9646752" lon="15.0784436"><ele>465.0</ele><time>2026-03-28T09:14:30.507Z</time></trkpt><trkpt lat="36.96463" lon="15.0783127"><ele>465.0</ele><time>2026-03-28T09:14:31.507Z</time></trkpt><trkpt lat="36.9645697" lon="15.0781829"><ele>465.0</ele><time>2026-03-28T09:14:32.504Z</time></trkpt><trkpt lat="36.9645019" lon="15.0780603"><ele>465.0</ele><time>2026-03-28T09:14:33.506Z</time></trkpt><trkpt lat="36.9644286" lon="15.0779411"><ele>464.6</ele><time>2026-03-28T09:14:34.505Z</time></trkpt><trkpt lat="36.9643562" lon="15.0778381"><ele>464.2</ele><time>2026-03-28T09:14:35.506Z</time></trkpt><trkpt lat="36.9642946" lon="15.0777441"><ele>463.79999999999995</ele><time>2026-03-28T09:14:36.507Z</time></trkpt><trkpt lat="36.9642421" lon="15.0776559"><ele>463.4</ele><time>2026-03-28T09:14:37.507Z</time></trkpt><trkpt lat="36.9642004" lon="15.0775826"><ele>463.0</ele><time>2026-03-28T09:14:38.506Z</time></trkpt><trkpt lat="36.9641518" lon="15.0774784"><ele>462.00000000000006</ele><time>2026-03-28T09:14:40.505Z</time></trkpt><trkpt lat="36.9641225" lon="15.0774029"><ele>461.0</ele><time>2026-03-28T09:17:04.505Z</time></trkpt><trkpt lat="36.9641004" lon="15.0773122"><ele>460.0</ele><time>2026-03-28T09:17:06.505Z</time></trkpt><trkpt lat="36.9640903" lon="15.0771957"><ele>459.0</ele><time>2026-03-28T09:17:08.505Z</time></trkpt><trkpt lat="36.9640829" lon="15.0770448"><ele>458.00000000000006</ele><time>2026-03-28T09:17:10.506Z</time></trkpt><trkpt lat="36.9640779" lon="15.0769659"><ele>457.0</ele><time>2026-03-28T09:17:11.505Z</time></trkpt><trkpt lat="36.9640741" lon="15.0768821"><ele>457.00000000000006</ele><time>2026-03-28T09:17:12.506Z</time></trkpt><trkpt lat="36.9640647" lon="15.0768035"><ele>457.0</ele><time>2026-03-28T09:17:13.506Z</time></trkpt><trkpt lat="36.964057" lon="15.0766709"><ele>457.0</ele><time>2026-03-28T09:17:15.505Z</time></trkpt><trkpt lat="36.9640544" lon="15.0765669"><ele>457.0</ele><time>2026-03-28T09:17:17.506Z</time></trkpt><trkpt lat="36.9640451" lon="15.076477"><ele>457.00000000000006</ele><time>2026-03-28T09:17:19.505Z</time></trkpt><trkpt lat="36.9640099" lon="15.0763388"><ele>457.0</ele><time>2026-03-28T09:17:21.506Z</time></trkpt><trkpt lat="36.9639636" lon="15.0761935"><ele>456.50000000000006</ele><time>2026-03-28T09:17:23.506Z</time></trkpt><trkpt lat="36.9639103" lon="15.0760519"><ele>456.0</ele><time>2026-03-28T09:17:25.505Z</time></trkpt><trkpt lat="36.9638853" lon="15.075972"><ele>455.5</ele><time>2026-03-28T09:17:26.507Z</time></trkpt><trkpt lat="36.9638662" lon="15.0758909"><ele>455.0</ele><time>2026-03-28T09:17:27.507Z</time></trkpt><trkpt lat="36.9638455" lon="15.0758012"><ele>454.50000000000006</ele><time>2026-03-28T09:17:28.506Z</time></trkpt><trkpt lat="36.9638223" lon="15.0757128"><ele>454.0</ele><time>2026-03-28T09:17:29.505Z</time></trkpt><trkpt lat="36.963797" lon="15.0756236"><ele>454.0</ele><time>2026-03-28T09:17:30.506Z</time></trkpt><trkpt lat="36.9637741" lon="15.0755417"><ele>454.00000000000006</ele><time>2026-03-28T09:17:31.504Z</time></trkpt><trkpt lat="36.9637435" lon="15.0754646"><ele>454.0</ele><time>2026-03-28T09:17:32.505Z</time></trkpt><trkpt lat="36.9637128" lon="15.0753938"><ele>454.0</ele><time>2026-03-28T09:17:33.505Z</time></trkpt><trkpt lat="36.9636809" lon="15.0753225"><ele>454.00000000000006</ele><time>2026-03-28T09:17:34.506Z</time></trkpt><trkpt lat="36.963648" lon="15.0752511"><ele>454.0</ele><time>2026-03-28T09:17:35.506Z</time></trkpt><trkpt lat="36.9636229" lon="15.0751701"><ele>454.0</ele><time>2026-03-28T09:17:36.506Z</time></trkpt><trkpt lat="36.9636029" lon="15.0750889"><ele>454.00000000000006</ele><time>2026-03-28T09:17:37.505Z</time></trkpt><trkpt lat="36.9635832" lon="15.0750059"><ele>454.0</ele><time>2026-03-28T09:17:38.504Z</time></trkpt><trkpt lat="36.9635747" lon="15.0749162"><ele>454.0</ele><time>2026-03-28T09:17:39.506Z</time></trkpt><trkpt lat="36.9635795" lon="15.0748074"><ele>454.0</ele><time>2026-03-28T09:17:40.506Z</time></trkpt><trkpt lat="36.9635894" lon="15.0747061"><ele>454.00000000000006</ele><time>2026-03-28T09:17:41.505Z</time></trkpt><trkpt lat="36.9636044" lon="15.0746088"><ele>454.0</ele><time>2026-03-28T09:17:42.506Z</time></trkpt><trkpt lat="36.9636251" lon="15.074505"><ele>454.6666666666667</ele><time>2026-03-28T09:17:43.505Z</time></trkpt><trkpt lat="36.9636582" lon="15.0744037"><ele>455.33333333333337</ele><time>2026-03-28T09:17:44.506Z</time></trkpt><trkpt lat="36.9636873" lon="15.0743156"><ele>456.0</ele><time>2026-03-28T09:17:45.506Z</time></trkpt><trkpt lat="36.9637168" lon="15.074237"><ele>456.66666666666663</ele><time>2026-03-28T09:17:46.505Z</time></trkpt><trkpt lat="36.9637503" lon="15.0741487"><ele>457.3333333333333</ele><time>2026-03-28T09:17:47.506Z</time></trkpt><trkpt lat="36.9637991" lon="15.0740703"><ele>458.0</ele><time>2026-03-28T09:17:48.507Z</time></trkpt><trkpt lat="36.9638391" lon="15.0739887"><ele>458.1428571428571</ele><time>2026-03-28T09:17:49.505Z</time></trkpt><trkpt lat="36.9638768" lon="15.0739115"><ele>458.28571428571433</ele><time>2026-03-28T09:17:50.505Z</time></trkpt><trkpt lat="36.9639094" lon="15.0738345"><ele>458.42857142857144</ele><time>2026-03-28T09:17:51.506Z</time></trkpt><trkpt lat="36.9639421" lon="15.0737575"><ele>458.57142857142856</ele><time>2026-03-28T09:17:52.506Z</time></trkpt><trkpt lat="36.9639606" lon="15.073673"><ele>458.71428571428567</ele><time>2026-03-28T09:17:53.506Z</time></trkpt><trkpt lat="36.963983" lon="15.073593"><ele>458.8571428571429</ele><time>2026-03-28T09:17:54.504Z</time></trkpt><trkpt lat="36.9640072" lon="15.0735084"><ele>459.0</ele><time>2026-03-28T09:17:55.506Z</time></trkpt><trkpt lat="36.9640181" lon="15.0734297"><ele>459.0</ele><time>2026-03-28T09:17:56.504Z</time></trkpt><trkpt lat="36.9640413" lon="15.0733401"><ele>459.0</ele><time>2026-03-28T09:17:57.506Z</time></trkpt><trkpt lat="36.9640587" lon="15.0732494"><ele>459.0</ele><time>2026-03-28T09:17:58.504Z</time></trkpt><trkpt lat="36.9640759" lon="15.0731565"><ele>459.0</ele><time>2026-03-28T09:17:59.504Z</time></trkpt><trkpt lat="36.9640876" lon="15.0730728"><ele>459.0</ele><time>2026-03-28T09:18:00.505Z</time></trkpt><trkpt lat="36.9640961" lon="15.072993"><ele>459.0</ele><time>2026-03-28T09:18:01.504Z</time></trkpt><trkpt lat="36.9641032" lon="15.0729123"><ele>459.0</ele><time>2026-03-28T09:18:02.505Z</time></trkpt><trkpt lat="36.9641113" lon="15.0728262"><ele>458.8571428571429</ele><time>2026-03-28T09:18:03.506Z</time></trkpt><trkpt lat="36.9641194" lon="15.0727286"><ele>458.71428571428567</ele><time>2026-03-28T09:18:04.505Z</time></trkpt><trkpt lat="36.9641266" lon="15.0726267"><ele>458.57142857142856</ele><time>2026-03-28T09:18:05.506Z</time></trkpt><trkpt lat="36.9641277" lon="15.0725333"><ele>458.42857142857144</ele><time>2026-03-28T09:18:06.505Z</time></trkpt><trkpt lat="36.9641317" lon="15.0724441"><ele>458.28571428571433</ele><time>2026-03-28T09:18:07.505Z</time></trkpt><trkpt lat="36.9641412" lon="15.0723538"><ele>458.1428571428571</ele><time>2026-03-28T09:18:08.504Z</time></trkpt><trkpt lat="36.9641455" lon="15.0722717"><ele>458.0</ele><time>2026-03-28T09:18:09.505Z</time></trkpt><trkpt lat="36.9641158" lon="15.072116"><ele>457.99999999999994</ele><time>2026-03-28T09:18:11.506Z</time></trkpt><trkpt lat="36.9640901" lon="15.0720365"><ele>458.0</ele><time>2026-03-28T09:18:12.506Z</time></trkpt><trkpt lat="36.9640664" lon="15.0719573"><ele>458.0</ele><time>2026-03-28T09:18:13.505Z</time></trkpt><trkpt lat="36.9640443" lon="15.0718402"><ele>458.0</ele><time>2026-03-28T09:18:15.507Z</time></trkpt><trkpt lat="36.9640325" lon="15.0717192"><ele>457.99999999999994</ele><time>2026-03-28T09:18:17.505Z</time></trkpt><trkpt lat="36.9640236" lon="15.0715745"><ele>458.0</ele><time>2026-03-28T09:18:19.505Z</time></trkpt><trkpt lat="36.9640276" lon="15.07149"><ele>458.1428571428571</ele><time>2026-03-28T09:18:20.505Z</time></trkpt><trkpt lat="36.9640351" lon="15.0714107"><ele>458.28571428571433</ele><time>2026-03-28T09:18:21.506Z</time></trkpt><trkpt lat="36.9640408" lon="15.0713292"><ele>458.42857142857144</ele><time>2026-03-28T09:18:22.505Z</time></trkpt><trkpt lat="36.9640413" lon="15.07124"><ele>458.57142857142856</ele><time>2026-03-28T09:18:23.505Z</time></trkpt><trkpt lat="36.9640461" lon="15.0711546"><ele>458.71428571428567</ele><time>2026-03-28T09:18:24.506Z</time></trkpt><trkpt lat="36.9640509" lon="15.0710681"><ele>458.8571428571429</ele><time>2026-03-28T09:18:25.505Z</time></trkpt><trkpt lat="36.964052" lon="15.07098"><ele>459.0</ele><time>2026-03-28T09:18:26.507Z</time></trkpt><trkpt lat="36.964053" lon="15.0708854"><ele>459.0</ele><time>2026-03-28T09:18:27.505Z</time></trkpt><trkpt lat="36.9640552" lon="15.0708017"><ele>459.0</ele><time>2026-03-28T09:18:28.505Z</time></trkpt><trkpt lat="36.9640596" lon="15.0706607"><ele>459.0</ele><time>2026-03-28T09:18:30.505Z</time></trkpt><trkpt lat="36.9640517" lon="15.0705301"><ele>459.0</ele><time>2026-03-28T09:18:32.506Z</time></trkpt><trkpt lat="36.9640616" lon="15.0704326"><ele>459.0</ele><time>2026-03-28T09:18:42.505Z</time></trkpt><trkpt lat="36.9640511" lon="15.0703365"><ele>459.0</ele><time>2026-03-28T09:18:44.506Z</time></trkpt><trkpt lat="36.9640165" lon="15.0702399"><ele>458.8333333333333</ele><time>2026-03-28T09:18:46.505Z</time></trkpt><trkpt lat="36.9639908" lon="15.0701354"><ele>458.66666666666663</ele><time>2026-03-28T09:18:48.506Z</time></trkpt><trkpt lat="36.9639635" lon="15.0700222"><ele>458.5</ele><time>2026-03-28T09:18:50.506Z</time></trkpt><trkpt lat="36.9639293" lon="15.0699376"><ele>458.3333333333333</ele><time>2026-03-28T09:18:52.506Z</time></trkpt><trkpt lat="36.9639049" lon="15.0698588"><ele>458.16666666666663</ele><time>2026-03-28T09:18:54.505Z</time></trkpt><trkpt lat="36.9639004" lon="15.0697741"><ele>458.0</ele><time>2026-03-28T09:19:45.506Z</time></trkpt><trkpt lat="36.9638876" lon="15.0696649"><ele>458.0</ele><time>2026-03-28T09:19:48.504Z</time></trkpt><trkpt lat="36.9638538" lon="15.0695651"><ele>457.99999999999994</ele><time>2026-03-28T09:19:50.506Z</time></trkpt><trkpt lat="36.9638089" lon="15.069448"><ele>457.99999999999994</ele><time>2026-03-28T09:19:52.504Z</time></trkpt><trkpt lat="36.9637714" lon="15.0693138"><ele>458.0</ele><time>2026-03-28T09:19:54.505Z</time></trkpt><trkpt lat="36.9637139" lon="15.0692"><ele>458.0</ele><time>2026-03-28T09:19:56.505Z</time></trkpt><trkpt lat="36.9636578" lon="15.0690897"><ele>458.4</ele><time>2026-03-28T09:19:58.506Z</time></trkpt><trkpt lat="36.9635758" lon="15.0689821"><ele>458.79999999999995</ele><time>2026-03-28T09:20:00.505Z</time></trkpt><trkpt lat="36.9635034" lon="15.0688893"><ele>459.2</ele><time>2026-03-28T09:20:02.505Z</time></trkpt><trkpt lat="36.9634094" lon="15.0687931"><ele>459.6</ele><time>2026-03-28T09:20:04.505Z</time></trkpt><trkpt lat="36.9633337" lon="15.0687172"><ele>460.0</ele><time>2026-03-28T09:20:06.506Z</time></trkpt><trkpt lat="36.9632421" lon="15.068632"><ele>460.0</ele><time>2026-03-28T09:20:08.506Z</time></trkpt><trkpt lat="36.9631672" lon="15.0685543"><ele>460.0</ele><time>2026-03-28T09:20:10.505Z</time></trkpt><trkpt lat="36.9631149" lon="15.0684952"><ele>460.0</ele><time>2026-03-28T09:20:12.505Z</time></trkpt><trkpt lat="36.9630403" lon="15.0684062"><ele>460.0</ele><time>2026-03-28T09:20:14.505Z</time></trkpt><trkpt lat="36.9629608" lon="15.0683108"><ele>460.0</ele><time>2026-03-28T09:20:16.505Z</time></trkpt><trkpt lat="36.96289" lon="15.0681964"><ele>460.6</ele><time>2026-03-28T09:20:18.505Z</time></trkpt><trkpt lat="36.9628263" lon="15.0680913"><ele>461.2</ele><time>2026-03-28T09:20:20.505Z</time></trkpt><trkpt lat="36.9627781" lon="15.0679687"><ele>461.79999999999995</ele><time>2026-03-28T09:20:22.505Z</time></trkpt><trkpt lat="36.9627293" lon="15.0678552"><ele>462.4</ele><time>2026-03-28T09:20:24.504Z</time></trkpt><trkpt lat="36.9626675" lon="15.067762"><ele>463.0</ele><time>2026-03-28T09:20:26.505Z</time></trkpt><trkpt lat="36.9626615" lon="15.0676741"><ele>463.0</ele><time>2026-03-28T09:20:37.506Z</time></trkpt><trkpt lat="36.9627205" lon="15.067577"><ele>462.99999999999994</ele><time>2026-03-28T09:20:47.506Z</time></trkpt><trkpt lat="36.9627582" lon="15.0674732"><ele>462.99999999999994</ele><time>2026-03-28T09:20:49.505Z</time></trkpt><trkpt lat="36.9628019" lon="15.067344"><ele>463.0</ele><time>2026-03-28T09:20:51.505Z</time></trkpt><trkpt lat="36.962848" lon="15.0672092"><ele>463.0</ele><time>2026-03-28T09:20:53.506Z</time></trkpt><trkpt lat="36.9628941" lon="15.0670738"><ele>462.71428571428567</ele><time>2026-03-28T09:20:55.505Z</time></trkpt><trkpt lat="36.9629188" lon="15.066998"><ele>462.4285714285714</ele><time>2026-03-28T09:20:56.505Z</time></trkpt><trkpt lat="36.9629401" lon="15.0669183"><ele>462.1428571428571</ele><time>2026-03-28T09:20:57.506Z</time></trkpt><trkpt lat="36.9629554" lon="15.0668396"><ele>461.8571428571429</ele><time>2026-03-28T09:20:58.506Z</time></trkpt><trkpt lat="36.9629679" lon="15.066755"><ele>461.5714285714286</ele><time>2026-03-28T09:20:59.505Z</time></trkpt><trkpt lat="36.9629895" lon="15.0666741"><ele>461.28571428571433</ele><time>2026-03-28T09:21:00.506Z</time></trkpt><trkpt lat="36.9630072" lon="15.0665902"><ele>461.0</ele><time>2026-03-28T09:21:01.506Z</time></trkpt><trkpt lat="36.9630237" lon="15.0665071"><ele>460.3333333333333</ele><time>2026-03-28T09:21:02.505Z</time></trkpt><trkpt lat="36.9630381" lon="15.0664099"><ele>459.66666666666663</ele><time>2026-03-28T09:21:03.504Z</time></trkpt><trkpt lat="36.9630545" lon="15.0663083"><ele>459.0</ele><time>2026-03-28T09:21:04.504Z</time></trkpt><trkpt lat="36.9630734" lon="15.0662038"><ele>458.33333333333337</ele><time>2026-03-28T09:21:05.506Z</time></trkpt><trkpt lat="36.963097" lon="15.0660939"><ele>457.6666666666667</ele><time>2026-03-28T09:21:06.506Z</time></trkpt><trkpt lat="36.9631178" lon="15.0659948"><ele>457.0</ele><time>2026-03-28T09:21:07.506Z</time></trkpt><trkpt lat="36.9631319" lon="15.0659049"><ele>457.00000000000006</ele><time>2026-03-28T09:21:08.506Z</time></trkpt><trkpt lat="36.9631532" lon="15.0658221"><ele>457.0</ele><time>2026-03-28T09:21:09.504Z</time></trkpt><trkpt lat="36.963183" lon="15.0657341"><ele>457.00000000000006</ele><time>2026-03-28T09:21:10.505Z</time></trkpt><trkpt lat="36.9632031" lon="15.0656502"><ele>457.00000000000006</ele><time>2026-03-28T09:21:11.505Z</time></trkpt><trkpt lat="36.9632234" lon="15.0655639"><ele>457.0</ele><time>2026-03-28T09:21:12.505Z</time></trkpt><trkpt lat="36.9632397" lon="15.0654727"><ele>457.00000000000006</ele><time>2026-03-28T09:21:13.505Z</time></trkpt><trkpt lat="36.9632539" lon="15.0653868"><ele>457.00000000000006</ele><time>2026-03-28T09:21:14.504Z</time></trkpt><trkpt lat="36.9632646" lon="15.065298"><ele>456.1666666666667</ele><time>2026-03-28T09:21:15.506Z</time></trkpt><trkpt lat="36.9632713" lon="15.0651996"><ele>455.33333333333337</ele><time>2026-03-28T09:21:16.505Z</time></trkpt><trkpt lat="36.9632796" lon="15.0650843"><ele>454.5</ele><time>2026-03-28T09:21:17.506Z</time></trkpt><trkpt lat="36.9632855" lon="15.0649827"><ele>453.66666666666663</ele><time>2026-03-28T09:21:18.505Z</time></trkpt><trkpt lat="36.963302" lon="15.0648984"><ele>452.8333333333333</ele><time>2026-03-28T09:21:19.505Z</time></trkpt><trkpt lat="36.9633131" lon="15.0648131"><ele>452.0</ele><time>2026-03-28T09:21:20.506Z</time></trkpt><trkpt lat="36.9633427" lon="15.0646451"><ele>452.49999999999994</ele><time>2026-03-28T09:21:22.506Z</time></trkpt><trkpt lat="36.9633661" lon="15.0645287"><ele>453.0</ele><time>2026-03-28T09:21:23.505Z</time></trkpt><trkpt lat="36.9633983" lon="15.0644094"><ele>453.5</ele><time>2026-03-28T09:21:24.506Z</time></trkpt><trkpt lat="36.9634237" lon="15.0642969"><ele>454.0</ele><time>2026-03-28T09:21:25.506Z</time></trkpt><trkpt lat="36.9634495" lon="15.0642051"><ele>454.49999999999994</ele><time>2026-03-28T09:21:26.506Z</time></trkpt><trkpt lat="36.9634708" lon="15.064122"><ele>455.0</ele><time>2026-03-28T09:21:27.505Z</time></trkpt><trkpt lat="36.9635137" lon="15.064"><ele>454.99999999999994</ele><time>2026-03-28T09:21:29.506Z</time></trkpt><trkpt lat="36.9635456" lon="15.0639262"><ele>455.0</ele><time>2026-03-28T09:21:50.506Z</time></trkpt><trkpt lat="36.9635124" lon="15.0640005"><ele>455.0</ele><time>2026-03-28T09:22:12.503Z</time></trkpt><trkpt lat="36.9634703" lon="15.0640615"><ele>455.0</ele><time>2026-03-28T09:22:17.505Z</time></trkpt><trkpt lat="36.9634656" lon="15.0641568"><ele>454.99999999999994</ele><time>2026-03-28T09:28:21.504Z</time></trkpt><trkpt lat="36.9634341" lon="15.0643082"><ele>455.0</ele><time>2026-03-28T09:28:23.504Z</time></trkpt><trkpt lat="36.9634149" lon="15.0643836"><ele>455.0</ele><time>2026-03-28T09:28:24.504Z</time></trkpt><trkpt lat="36.9633704" lon="15.0645405"><ele>455.0</ele><time>2026-03-28T09:28:26.505Z</time></trkpt><trkpt lat="36.963349" lon="15.0646354"><ele>455.0</ele><time>2026-03-28T09:28:27.504Z</time></trkpt><trkpt lat="36.9633274" lon="15.0647451"><ele>455.0</ele><time>2026-03-28T09:28:28.504Z</time></trkpt><trkpt lat="36.9633094" lon="15.0648524"><ele>455.0</ele><time>2026-03-28T09:28:29.504Z</time></trkpt><trkpt lat="36.9632925" lon="15.0649698"><ele>454.49999999999994</ele><time>2026-03-28T09:28:30.505Z</time></trkpt><trkpt lat="36.9632873" lon="15.0650894"><ele>454.0</ele><time>2026-03-28T09:28:31.504Z</time></trkpt><trkpt lat="36.9632806" lon="15.0652098"><ele>453.5</ele><time>2026-03-28T09:28:32.504Z</time></trkpt><trkpt lat="36.9632762" lon="15.0653135"><ele>453.0</ele><time>2026-03-28T09:28:33.503Z</time></trkpt><trkpt lat="36.9632679" lon="15.0653929"><ele>452.49999999999994</ele><time>2026-03-28T09:28:34.504Z</time></trkpt><trkpt lat="36.963256" lon="15.0654776"><ele>452.0</ele><time>2026-03-28T09:28:35.504Z</time></trkpt><trkpt lat="36.9632367" lon="15.0656098"><ele>451.99999999999994</ele><time>2026-03-28T09:28:37.504Z</time></trkpt><trkpt lat="36.9631947" lon="15.0656938"><ele>452.0</ele><time>2026-03-28T09:28:40.503Z</time></trkpt><trkpt lat="36.9632171" lon="15.0655726"><ele>452.0</ele><time>2026-03-28T09:29:21.504Z</time></trkpt><trkpt lat="36.9632481" lon="15.0654592"><ele>452.0</ele><time>2026-03-28T09:29:23.504Z</time></trkpt><trkpt lat="36.9632592" lon="15.0653731"><ele>451.99999999999994</ele><time>2026-03-28T09:29:24.504Z</time></trkpt><trkpt lat="36.9632652" lon="15.0652923"><ele>452.0</ele><time>2026-03-28T09:29:25.503Z</time></trkpt><trkpt lat="36.9632701" lon="15.065194"><ele>451.99999999999994</ele><time>2026-03-28T09:29:26.505Z</time></trkpt><trkpt lat="36.963275" lon="15.0650869"><ele>452.0</ele><time>2026-03-28T09:29:27.503Z</time></trkpt><trkpt lat="36.9632798" lon="15.0649929"><ele>452.0</ele><time>2026-03-28T09:29:28.504Z</time></trkpt><trkpt lat="36.9632887" lon="15.0649012"><ele>452.0</ele><time>2026-03-28T09:29:29.505Z</time></trkpt><trkpt lat="36.9633041" lon="15.0648088"><ele>451.99999999999994</ele><time>2026-03-28T09:29:30.503Z</time></trkpt><trkpt lat="36.9633183" lon="15.0647155"><ele>452.0</ele><time>2026-03-28T09:29:31.505Z</time></trkpt><trkpt lat="36.9633446" lon="15.0646075"><ele>452.6</ele><time>2026-03-28T09:29:32.503Z</time></trkpt><trkpt lat="36.963373" lon="15.0644878"><ele>453.20000000000005</ele><time>2026-03-28T09:29:33.503Z</time></trkpt><trkpt lat="36.963405" lon="15.0643705"><ele>453.8</ele><time>2026-03-28T09:29:34.504Z</time></trkpt><trkpt lat="36.9634279" lon="15.0642659"><ele>454.4</ele><time>2026-03-28T09:29:35.503Z</time></trkpt><trkpt lat="36.9634571" lon="15.0641469"><ele>455.0</ele><time>2026-03-28T09:29:37.504Z</time></trkpt><trkpt lat="36.9634562" lon="15.0640526"><ele>455.0</ele><time>2026-03-28T09:29:40.505Z</time></trkpt></trkseg><trkseg><trkpt lat="36.9635242" lon="15.0639665"><ele>455.0</ele><time>2026-03-28T09:43:17.501Z</time></trkpt><trkpt lat="36.9636011" lon="15.0638601"><ele>455.0</ele><time>2026-03-28T09:43:19.502Z</time></trkpt><trkpt lat="36.9636719" lon="15.0637328"><ele>455.0</ele><time>2026-03-28T09:43:21.502Z</time></trkpt><trkpt lat="36.9637502" lon="15.0636129"><ele>455.0</ele><time>2026-03-28T09:43:23.502Z</time></trkpt><trkpt lat="36.9637863" lon="15.0635441"><ele>455.0</ele><time>2026-03-28T09:43:24.502Z</time></trkpt><trkpt lat="36.963831" lon="15.0634504"><ele>454.99999999999994</ele><time>2026-03-28T09:43:25.503Z</time></trkpt><trkpt lat="36.9638859" lon="15.0633515"><ele>455.0</ele><time>2026-03-28T09:43:26.501Z</time></trkpt><trkpt lat="36.9639284" lon="15.0632742"><ele>455.0</ele><time>2026-03-28T09:43:27.502Z</time></trkpt><trkpt lat="36.9639727" lon="15.063198"><ele>455.0</ele><time>2026-03-28T09:43:28.502Z</time></trkpt><trkpt lat="36.9640078" lon="15.0631319"><ele>454.99999999999994</ele><time>2026-03-28T09:43:29.503Z</time></trkpt><trkpt lat="36.9640776" lon="15.0629993"><ele>455.0</ele><time>2026-03-28T09:43:31.502Z</time></trkpt><trkpt lat="36.964156" lon="15.0628812"><ele>456.6</ele><time>2026-03-28T09:43:33.501Z</time></trkpt><trkpt lat="36.9642676" lon="15.062799"><ele>458.2</ele><time>2026-03-28T09:43:35.502Z</time></trkpt><trkpt lat="36.9643237" lon="15.0627559"><ele>459.79999999999995</ele><time>2026-03-28T09:43:36.502Z</time></trkpt><trkpt lat="36.9643964" lon="15.0626411"><ele>461.4</ele><time>2026-03-28T09:43:38.501Z</time></trkpt><trkpt lat="36.9644254" lon="15.0624957"><ele>463.0</ele><time>2026-03-28T09:43:40.502Z</time></trkpt><trkpt lat="36.9644412" lon="15.0624139"><ele>463.57142857142856</ele><time>2026-03-28T09:43:41.501Z</time></trkpt><trkpt lat="36.964465" lon="15.0623163"><ele>464.1428571428571</ele><time>2026-03-28T09:43:42.502Z</time></trkpt><trkpt lat="36.9644957" lon="15.0622202"><ele>464.71428571428567</ele><time>2026-03-28T09:43:43.502Z</time></trkpt><trkpt lat="36.9645271" lon="15.0621435"><ele>465.2857142857142</ele><time>2026-03-28T09:43:44.501Z</time></trkpt><trkpt lat="36.9645571" lon="15.0620627"><ele>465.85714285714283</ele><time>2026-03-28T09:43:45.503Z</time></trkpt><trkpt lat="36.9645863" lon="15.0619925"><ele>466.42857142857133</ele><time>2026-03-28T09:43:46.502Z</time></trkpt><trkpt lat="36.964619" lon="15.0619115"><ele>466.99999999999994</ele><time>2026-03-28T09:43:47.502Z</time></trkpt><trkpt lat="36.9646587" lon="15.06183"><ele>466.99999999999994</ele><time>2026-03-28T09:43:48.503Z</time></trkpt><trkpt lat="36.9646948" lon="15.0617475"><ele>467.0</ele><time>2026-03-28T09:43:49.503Z</time></trkpt><trkpt lat="36.9647371" lon="15.0616742"><ele>466.99999999999994</ele><time>2026-03-28T09:43:50.502Z</time></trkpt><trkpt lat="36.9647825" lon="15.0616042"><ele>466.99999999999994</ele><time>2026-03-28T09:43:51.502Z</time></trkpt><trkpt lat="36.9648264" lon="15.0615291"><ele>467.0</ele><time>2026-03-28T09:43:52.503Z</time></trkpt><trkpt lat="36.9648672" lon="15.0614536"><ele>466.99999999999994</ele><time>2026-03-28T09:43:53.503Z</time></trkpt><trkpt lat="36.9649031" lon="15.0613791"><ele>466.99999999999994</ele><time>2026-03-28T09:43:54.503Z</time></trkpt><trkpt lat="36.9649692" lon="15.0612341"><ele>467.16666666666663</ele><time>2026-03-28T09:43:56.501Z</time></trkpt><trkpt lat="36.9650059" lon="15.0611507"><ele>467.3333333333333</ele><time>2026-03-28T09:43:57.502Z</time></trkpt><trkpt lat="36.965041" lon="15.0610785"><ele>467.5</ele><time>2026-03-28T09:43:58.502Z</time></trkpt><trkpt lat="36.9650765" lon="15.0610014"><ele>467.66666666666663</ele><time>2026-03-28T09:43:59.502Z</time></trkpt><trkpt lat="36.9651132" lon="15.060909"><ele>467.8333333333333</ele><time>2026-03-28T09:44:00.503Z</time></trkpt><trkpt lat="36.9651516" lon="15.0608101"><ele>468.0</ele><time>2026-03-28T09:44:01.502Z</time></trkpt><trkpt lat="36.9651909" lon="15.0607204"><ele>468.3333333333333</ele><time>2026-03-28T09:44:02.502Z</time></trkpt><trkpt lat="36.9652307" lon="15.0606315"><ele>468.66666666666663</ele><time>2026-03-28T09:44:03.501Z</time></trkpt><trkpt lat="36.9652667" lon="15.0605484"><ele>469.0</ele><time>2026-03-28T09:44:04.502Z</time></trkpt><trkpt lat="36.9653046" lon="15.0604675"><ele>469.3333333333333</ele><time>2026-03-28T09:44:05.502Z</time></trkpt><trkpt lat="36.9653466" lon="15.0603703"><ele>469.66666666666663</ele><time>2026-03-28T09:44:06.502Z</time></trkpt><trkpt lat="36.9653951" lon="15.0602721"><ele>470.0</ele><time>2026-03-28T09:44:07.502Z</time></trkpt><trkpt lat="36.9654462" lon="15.0601915"><ele>469.99999999999994</ele><time>2026-03-28T09:44:08.502Z</time></trkpt><trkpt lat="36.9655012" lon="15.0601073"><ele>470.0</ele><time>2026-03-28T09:44:09.503Z</time></trkpt><trkpt lat="36.9655623" lon="15.0600156"><ele>470.0</ele><time>2026-03-28T09:44:10.501Z</time></trkpt><trkpt lat="36.9656209" lon="15.0599395"><ele>470.0</ele><time>2026-03-28T09:44:11.502Z</time></trkpt><trkpt lat="36.9656752" lon="15.0598561"><ele>469.99999999999994</ele><time>2026-03-28T09:44:12.502Z</time></trkpt><trkpt lat="36.9657311" lon="15.0597598"><ele>470.0</ele><time>2026-03-28T09:44:13.502Z</time></trkpt><trkpt lat="36.9657807" lon="15.0596636"><ele>470.16666666666663</ele><time>2026-03-28T09:44:14.501Z</time></trkpt><trkpt lat="36.9658258" lon="15.0595621"><ele>470.3333333333333</ele><time>2026-03-28T09:44:15.502Z</time></trkpt><trkpt lat="36.9658688" lon="15.059467"><ele>470.5</ele><time>2026-03-28T09:44:16.503Z</time></trkpt><trkpt lat="36.9659143" lon="15.059371"><ele>470.66666666666663</ele><time>2026-03-28T09:44:17.502Z</time></trkpt><trkpt lat="36.9659534" lon="15.059274"><ele>470.8333333333333</ele><time>2026-03-28T09:44:18.503Z</time></trkpt><trkpt lat="36.9659825" lon="15.0591679"><ele>471.0</ele><time>2026-03-28T09:44:19.502Z</time></trkpt><trkpt lat="36.9660117" lon="15.0590688"><ele>470.6666666666667</ele><time>2026-03-28T09:44:20.503Z</time></trkpt><trkpt lat="36.9660336" lon="15.0589697"><ele>470.33333333333337</ele><time>2026-03-28T09:44:21.503Z</time></trkpt><trkpt lat="36.9660567" lon="15.0588629"><ele>470.0</ele><time>2026-03-28T09:44:22.503Z</time></trkpt><trkpt lat="36.966077" lon="15.0587666"><ele>469.6666666666667</ele><time>2026-03-28T09:44:23.503Z</time></trkpt><trkpt lat="36.9660889" lon="15.0586606"><ele>469.33333333333337</ele><time>2026-03-28T09:44:24.502Z</time></trkpt><trkpt lat="36.9660926" lon="15.0585505"><ele>469.0</ele><time>2026-03-28T09:44:25.502Z</time></trkpt><trkpt lat="36.966095" lon="15.0584287"><ele>469.00000000000006</ele><time>2026-03-28T09:44:26.502Z</time></trkpt><trkpt lat="36.966096" lon="15.0583289"><ele>469.0</ele><time>2026-03-28T09:44:27.502Z</time></trkpt><trkpt lat="36.9660961" lon="15.0582292"><ele>469.0</ele><time>2026-03-28T09:44:28.503Z</time></trkpt><trkpt lat="36.9661003" lon="15.0581217"><ele>469.0</ele><time>2026-03-28T09:44:29.502Z</time></trkpt><trkpt lat="36.9661005" lon="15.0580204"><ele>469.00000000000006</ele><time>2026-03-28T09:44:30.502Z</time></trkpt><trkpt lat="36.966101" lon="15.0579293"><ele>469.0</ele><time>2026-03-28T09:44:31.503Z</time></trkpt><trkpt lat="36.9661127" lon="15.0577784"><ele>468.57142857142856</ele><time>2026-03-28T09:44:33.502Z</time></trkpt><trkpt lat="36.9661302" lon="15.0576947"><ele>468.1428571428571</ele><time>2026-03-28T09:44:34.502Z</time></trkpt><trkpt lat="36.9661543" lon="15.0576043"><ele>467.7142857142857</ele><time>2026-03-28T09:44:35.502Z</time></trkpt><trkpt lat="36.9661741" lon="15.0575172"><ele>467.2857142857143</ele><time>2026-03-28T09:44:36.503Z</time></trkpt><trkpt lat="36.9661952" lon="15.0574334"><ele>466.85714285714283</ele><time>2026-03-28T09:44:37.503Z</time></trkpt><trkpt lat="36.9662127" lon="15.0573538"><ele>466.42857142857144</ele><time>2026-03-28T09:44:38.502Z</time></trkpt><trkpt lat="36.9662341" lon="15.0572647"><ele>466.0</ele><time>2026-03-28T09:44:39.502Z</time></trkpt><trkpt lat="36.9662573" lon="15.0571837"><ele>465.1666666666667</ele><time>2026-03-28T09:44:40.502Z</time></trkpt><trkpt lat="36.9662723" lon="15.0570967"><ele>464.33333333333337</ele><time>2026-03-28T09:44:41.501Z</time></trkpt><trkpt lat="36.9662913" lon="15.0570035"><ele>463.5</ele><time>2026-03-28T09:44:42.501Z</time></trkpt><trkpt lat="36.9663033" lon="15.0569134"><ele>462.66666666666663</ele><time>2026-03-28T09:44:43.502Z</time></trkpt><trkpt lat="36.9663179" lon="15.0568187"><ele>461.8333333333333</ele><time>2026-03-28T09:44:44.502Z</time></trkpt><trkpt lat="36.9663298" lon="15.0567241"><ele>461.0</ele><time>2026-03-28T09:44:45.502Z</time></trkpt><trkpt lat="36.9663384" lon="15.0566239"><ele>460.3333333333333</ele><time>2026-03-28T09:44:46.502Z</time></trkpt><trkpt lat="36.9663511" lon="15.0565129"><ele>459.66666666666663</ele><time>2026-03-28T09:44:47.502Z</time></trkpt><trkpt lat="36.9663625" lon="15.0564137"><ele>459.0</ele><time>2026-03-28T09:44:48.502Z</time></trkpt><trkpt lat="36.9663772" lon="15.0563141"><ele>458.33333333333337</ele><time>2026-03-28T09:44:49.503Z</time></trkpt><trkpt lat="36.9663855" lon="15.0562053"><ele>457.6666666666667</ele><time>2026-03-28T09:44:50.503Z</time></trkpt><trkpt lat="36.96639" lon="15.0560895"><ele>457.0</ele><time>2026-03-28T09:44:51.503Z</time></trkpt><trkpt lat="36.9663887" lon="15.0559816"><ele>457.00000000000006</ele><time>2026-03-28T09:44:52.502Z</time></trkpt><trkpt lat="36.9663875" lon="15.0558782"><ele>457.0</ele><time>2026-03-28T09:44:53.502Z</time></trkpt><trkpt lat="36.966384" lon="15.0557729"><ele>457.0</ele><time>2026-03-28T09:44:54.503Z</time></trkpt><trkpt lat="36.9663815" lon="15.055677"><ele>457.0</ele><time>2026-03-28T09:44:55.502Z</time></trkpt><trkpt lat="36.9663809" lon="15.055577"><ele>457.00000000000006</ele><time>2026-03-28T09:44:56.503Z</time></trkpt><trkpt lat="36.9663847" lon="15.055492"><ele>457.0</ele><time>2026-03-28T09:44:57.503Z</time></trkpt><trkpt lat="36.9663951" lon="15.0554105"><ele>456.28571428571433</ele><time>2026-03-28T09:44:58.502Z</time></trkpt><trkpt lat="36.9664056" lon="15.0553277"><ele>455.57142857142856</ele><time>2026-03-28T09:44:59.502Z</time></trkpt><trkpt lat="36.9664184" lon="15.0552499"><ele>454.8571428571429</ele><time>2026-03-28T09:45:00.503Z</time></trkpt><trkpt lat="36.9664331" lon="15.0551707"><ele>454.14285714285717</ele><time>2026-03-28T09:45:01.503Z</time></trkpt><trkpt lat="36.9664489" lon="15.0550943"><ele>453.42857142857144</ele><time>2026-03-28T09:45:02.502Z</time></trkpt><trkpt lat="36.9664649" lon="15.0550173"><ele>452.7142857142857</ele><time>2026-03-28T09:45:03.503Z</time></trkpt><trkpt lat="36.9664799" lon="15.0549361"><ele>452.0</ele><time>2026-03-28T09:45:04.502Z</time></trkpt><trkpt lat="36.9665003" lon="15.0548553"><ele>450.99999999999994</ele><time>2026-03-28T09:45:05.502Z</time></trkpt><trkpt lat="36.9665172" lon="15.0547792"><ele>450.0</ele><time>2026-03-28T09:45:06.502Z</time></trkpt><trkpt lat="36.9665382" lon="15.0546339"><ele>449.0</ele><time>2026-03-28T09:45:08.502Z</time></trkpt><trkpt lat="36.9665539" lon="15.0545539"><ele>448.0</ele><time>2026-03-28T09:45:09.502Z</time></trkpt><trkpt lat="36.9665812" lon="15.0543993"><ele>446.99999999999994</ele><time>2026-03-28T09:45:11.502Z</time></trkpt><trkpt lat="36.9665951" lon="15.0543142"><ele>446.0</ele><time>2026-03-28T09:45:12.501Z</time></trkpt><trkpt lat="36.9666133" lon="15.0542088"><ele>446.66666666666663</ele><time>2026-03-28T09:45:13.502Z</time></trkpt><trkpt lat="36.9666289" lon="15.0541067"><ele>447.3333333333333</ele><time>2026-03-28T09:45:14.502Z</time></trkpt><trkpt lat="36.9666426" lon="15.0540202"><ele>448.0</ele><time>2026-03-28T09:45:15.502Z</time></trkpt><trkpt lat="36.9666573" lon="15.0539272"><ele>448.66666666666663</ele><time>2026-03-28T09:45:16.503Z</time></trkpt><trkpt lat="36.966675" lon="15.0538406"><ele>449.3333333333333</ele><time>2026-03-28T09:45:17.501Z</time></trkpt><trkpt lat="36.9666942" lon="15.0537399"><ele>450.0</ele><time>2026-03-28T09:45:18.503Z</time></trkpt><trkpt lat="36.9667097" lon="15.0536387"><ele>450.0</ele><time>2026-03-28T09:45:19.501Z</time></trkpt><trkpt lat="36.9667268" lon="15.0535409"><ele>450.0</ele><time>2026-03-28T09:45:20.502Z</time></trkpt><trkpt lat="36.9667466" lon="15.0534302"><ele>450.0</ele><time>2026-03-28T09:45:21.502Z</time></trkpt><trkpt lat="36.9667614" lon="15.0533284"><ele>450.0</ele><time>2026-03-28T09:45:22.502Z</time></trkpt><trkpt lat="36.9667688" lon="15.0532421"><ele>450.0</ele><time>2026-03-28T09:45:23.502Z</time></trkpt><trkpt lat="36.9667732" lon="15.0531633"><ele>450.0</ele><time>2026-03-28T09:45:24.502Z</time></trkpt><trkpt lat="36.9667738" lon="15.0530208"><ele>450.0</ele><time>2026-03-28T09:45:26.502Z</time></trkpt><trkpt lat="36.9667627" lon="15.0528706"><ele>450.0</ele><time>2026-03-28T09:45:28.502Z</time></trkpt><trkpt lat="36.9667528" lon="15.0527802"><ele>450.0</ele><time>2026-03-28T09:45:29.502Z</time></trkpt><trkpt lat="36.9667453" lon="15.0526875"><ele>450.0</ele><time>2026-03-28T09:45:30.501Z</time></trkpt><trkpt lat="36.9667389" lon="15.0525881"><ele>450.0</ele><time>2026-03-28T09:45:31.502Z</time></trkpt><trkpt lat="36.9667201" lon="15.0524738"><ele>450.0</ele><time>2026-03-28T09:45:32.501Z</time></trkpt><trkpt lat="36.9666849" lon="15.0523627"><ele>447.8333333333333</ele><time>2026-03-28T09:45:33.501Z</time></trkpt><trkpt lat="36.9666532" lon="15.0522683"><ele>445.66666666666663</ele><time>2026-03-28T09:45:34.502Z</time></trkpt><trkpt lat="36.9666122" lon="15.052163"><ele>443.5</ele><time>2026-03-28T09:45:35.503Z</time></trkpt><trkpt lat="36.9665716" lon="15.0520675"><ele>441.3333333333333</ele><time>2026-03-28T09:45:36.502Z</time></trkpt><trkpt lat="36.9665342" lon="15.0519809"><ele>439.16666666666663</ele><time>2026-03-28T09:45:37.503Z</time></trkpt><trkpt lat="36.9664922" lon="15.0518919"><ele>437.0</ele><time>2026-03-28T09:45:38.502Z</time></trkpt><trkpt lat="36.9664572" lon="15.0517963"><ele>436.99999999999994</ele><time>2026-03-28T09:45:39.501Z</time></trkpt><trkpt lat="36.9664275" lon="15.0516856"><ele>437.0</ele><time>2026-03-28T09:45:40.502Z</time></trkpt><trkpt lat="36.9664079" lon="15.0515892"><ele>437.0</ele><time>2026-03-28T09:45:41.502Z</time></trkpt><trkpt lat="36.9663896" lon="15.051493"><ele>437.0</ele><time>2026-03-28T09:45:42.502Z</time></trkpt><trkpt lat="36.9663666" lon="15.0513846"><ele>436.99999999999994</ele><time>2026-03-28T09:45:43.502Z</time></trkpt><trkpt lat="36.9663452" lon="15.051288"><ele>437.0</ele><time>2026-03-28T09:45:44.502Z</time></trkpt><trkpt lat="36.9663187" lon="15.0512014"><ele>436.49999999999994</ele><time>2026-03-28T09:45:45.503Z</time></trkpt><trkpt lat="36.9662943" lon="15.0511081"><ele>436.0</ele><time>2026-03-28T09:45:46.502Z</time></trkpt><trkpt lat="36.966271" lon="15.0510147"><ele>435.5</ele><time>2026-03-28T09:45:47.502Z</time></trkpt><trkpt lat="36.9662412" lon="15.050917"><ele>435.0</ele><time>2026-03-28T09:45:48.502Z</time></trkpt><trkpt lat="36.966218" lon="15.0508296"><ele>434.49999999999994</ele><time>2026-03-28T09:45:49.502Z</time></trkpt><trkpt lat="36.9661878" lon="15.0507241"><ele>434.0</ele><time>2026-03-28T09:45:50.503Z</time></trkpt><trkpt lat="36.9661612" lon="15.0506327"><ele>431.99999999999994</ele><time>2026-03-28T09:45:51.502Z</time></trkpt><trkpt lat="36.9661365" lon="15.0505494"><ele>430.0</ele><time>2026-03-28T09:45:52.502Z</time></trkpt><trkpt lat="36.9661202" lon="15.0504687"><ele>428.0</ele><time>2026-03-28T09:45:53.503Z</time></trkpt><trkpt lat="36.9661107" lon="15.0503904"><ele>426.0</ele><time>2026-03-28T09:45:54.503Z</time></trkpt><trkpt lat="36.9660896" lon="15.050243"><ele>423.99999999999994</ele><time>2026-03-28T09:45:56.502Z</time></trkpt><trkpt lat="36.9660853" lon="15.0501171"><ele>422.0</ele><time>2026-03-28T09:45:58.502Z</time></trkpt><trkpt lat="36.9660708" lon="15.0500102"><ele>421.0</ele><time>2026-03-28T09:46:00.502Z</time></trkpt><trkpt lat="36.9660569" lon="15.0498712"><ele>420.0</ele><time>2026-03-28T09:46:02.503Z</time></trkpt><trkpt lat="36.9660487" lon="15.0497291"><ele>419.0</ele><time>2026-03-28T09:46:04.502Z</time></trkpt><trkpt lat="36.966045" lon="15.0495744"><ele>418.0</ele><time>2026-03-28T09:46:06.501Z</time></trkpt><trkpt lat="36.96604" lon="15.0494819"><ele>417.0</ele><time>2026-03-28T09:46:07.502Z</time></trkpt><trkpt lat="36.9660358" lon="15.0493911"><ele>417.0</ele><time>2026-03-28T09:46:08.502Z</time></trkpt><trkpt lat="36.9660346" lon="15.049303"><ele>417.0</ele><time>2026-03-28T09:46:09.502Z</time></trkpt><trkpt lat="36.9660337" lon="15.0492152"><ele>417.0</ele><time>2026-03-28T09:46:10.502Z</time></trkpt><trkpt lat="36.9660348" lon="15.0491325"><ele>417.0</ele><time>2026-03-28T09:46:11.503Z</time></trkpt><trkpt lat="36.9660376" lon="15.0489852"><ele>417.0</ele><time>2026-03-28T09:46:13.501Z</time></trkpt><trkpt lat="36.9660382" lon="15.0488516"><ele>417.0</ele><time>2026-03-28T09:46:15.502Z</time></trkpt><trkpt lat="36.966048" lon="15.0487176"><ele>416.5</ele><time>2026-03-28T09:46:17.503Z</time></trkpt><trkpt lat="36.9660555" lon="15.0485802"><ele>416.0</ele><time>2026-03-28T09:46:19.502Z</time></trkpt><trkpt lat="36.9660493" lon="15.0484324"><ele>415.5</ele><time>2026-03-28T09:46:21.503Z</time></trkpt><trkpt lat="36.9660413" lon="15.0483003"><ele>415.0</ele><time>2026-03-28T09:46:23.502Z</time></trkpt><trkpt lat="36.966007" lon="15.0481568"><ele>414.6666666666667</ele><time>2026-03-28T09:46:25.501Z</time></trkpt><trkpt lat="36.965997" lon="15.0480743"><ele>414.33333333333337</ele><time>2026-03-28T09:46:26.503Z</time></trkpt><trkpt lat="36.965994" lon="15.0479801"><ele>414.0</ele><time>2026-03-28T09:46:27.502Z</time></trkpt><trkpt lat="36.9659934" lon="15.0478793"><ele>413.66666666666663</ele><time>2026-03-28T09:46:28.503Z</time></trkpt><trkpt lat="36.9659954" lon="15.0477809"><ele>413.3333333333333</ele><time>2026-03-28T09:46:29.502Z</time></trkpt><trkpt lat="36.9659998" lon="15.0476906"><ele>413.0</ele><time>2026-03-28T09:46:30.502Z</time></trkpt><trkpt lat="36.9660097" lon="15.0475951"><ele>412.99999999999994</ele><time>2026-03-28T09:46:31.501Z</time></trkpt><trkpt lat="36.9660222" lon="15.0475054"><ele>413.0</ele><time>2026-03-28T09:46:32.502Z</time></trkpt><trkpt lat="36.9660338" lon="15.0474234"><ele>413.0</ele><time>2026-03-28T09:46:33.502Z</time></trkpt><trkpt lat="36.96602" lon="15.0472785"><ele>413.0</ele><time>2026-03-28T09:46:35.502Z</time></trkpt><trkpt lat="36.9659984" lon="15.0472029"><ele>412.99999999999994</ele><time>2026-03-28T09:46:36.502Z</time></trkpt><trkpt lat="36.9659485" lon="15.0470549"><ele>413.0</ele><time>2026-03-28T09:46:38.503Z</time></trkpt><trkpt lat="36.9659152" lon="15.0469807"><ele>412.49999999999994</ele><time>2026-03-28T09:46:39.502Z</time></trkpt><trkpt lat="36.9658854" lon="15.0469094"><ele>412.0</ele><time>2026-03-28T09:46:40.502Z</time></trkpt><trkpt lat="36.9658573" lon="15.0467579"><ele>411.5</ele><time>2026-03-28T09:46:42.503Z</time></trkpt><trkpt lat="36.9658156" lon="15.04667"><ele>411.0</ele><time>2026-03-28T09:46:44.502Z</time></trkpt><trkpt lat="36.9657654" lon="15.0466213"><ele>410.49999999999994</ele><time>2026-03-28T09:46:46.502Z</time></trkpt><trkpt lat="36.9656692" lon="15.0465903"><ele>410.0</ele><time>2026-03-28T09:46:48.503Z</time></trkpt><trkpt lat="36.9655562" lon="15.0465498"><ele>409.49999999999994</ele><time>2026-03-28T09:46:50.503Z</time></trkpt><trkpt lat="36.9654954" lon="15.0465242"><ele>409.0</ele><time>2026-03-28T09:46:51.502Z</time></trkpt><trkpt lat="36.965434" lon="15.0464949"><ele>408.5</ele><time>2026-03-28T09:46:52.502Z</time></trkpt><trkpt lat="36.9653731" lon="15.0464551"><ele>408.0</ele><time>2026-03-28T09:46:53.501Z</time></trkpt><trkpt lat="36.9652753" lon="15.0463635"><ele>407.49999999999994</ele><time>2026-03-28T09:46:55.502Z</time></trkpt><trkpt lat="36.9652322" lon="15.0462571"><ele>407.0</ele><time>2026-03-28T09:46:57.502Z</time></trkpt><trkpt lat="36.9651973" lon="15.0461686"><ele>407.00000000000006</ele><time>2026-03-28T09:47:09.502Z</time></trkpt><trkpt lat="36.965172" lon="15.0460925"><ele>407.0</ele><time>2026-03-28T09:47:10.502Z</time></trkpt><trkpt lat="36.9651482" lon="15.0460169"><ele>407.0</ele><time>2026-03-28T09:47:11.501Z</time></trkpt><trkpt lat="36.965124" lon="15.0459266"><ele>407.0</ele><time>2026-03-28T09:47:12.501Z</time></trkpt><trkpt lat="36.9650985" lon="15.0458309"><ele>407.0</ele><time>2026-03-28T09:47:13.501Z</time></trkpt><trkpt lat="36.9650622" lon="15.0457515"><ele>407.00000000000006</ele><time>2026-03-28T09:47:14.501Z</time></trkpt><trkpt lat="36.9650194" lon="15.0456779"><ele>407.0</ele><time>2026-03-28T09:47:15.501Z</time></trkpt><trkpt lat="36.964981" lon="15.045602"><ele>406.28571428571433</ele><time>2026-03-28T09:47:16.501Z</time></trkpt><trkpt lat="36.9649477" lon="15.0455278"><ele>405.57142857142856</ele><time>2026-03-28T09:47:17.501Z</time></trkpt><trkpt lat="36.9649152" lon="15.0454453"><ele>404.8571428571429</ele><time>2026-03-28T09:47:18.501Z</time></trkpt><trkpt lat="36.9648841" lon="15.0453578"><ele>404.14285714285717</ele><time>2026-03-28T09:47:19.501Z</time></trkpt><trkpt lat="36.9648587" lon="15.0452641"><ele>403.42857142857144</ele><time>2026-03-28T09:47:20.501Z</time></trkpt><trkpt lat="36.9648363" lon="15.0451763"><ele>402.7142857142857</ele><time>2026-03-28T09:47:21.501Z</time></trkpt><trkpt lat="36.9648177" lon="15.0450923"><ele>402.0</ele><time>2026-03-28T09:47:22.501Z</time></trkpt><trkpt lat="36.9647911" lon="15.0450156"><ele>401.4285714285714</ele><time>2026-03-28T09:47:23.502Z</time></trkpt><trkpt lat="36.9647593" lon="15.0449337"><ele>400.8571428571429</ele><time>2026-03-28T09:47:24.501Z</time></trkpt><trkpt lat="36.9647261" lon="15.0448527"><ele>400.2857142857143</ele><time>2026-03-28T09:47:25.501Z</time></trkpt><trkpt lat="36.9646871" lon="15.0447718"><ele>399.71428571428567</ele><time>2026-03-28T09:47:26.501Z</time></trkpt><trkpt lat="36.9646466" lon="15.0447001"><ele>399.1428571428571</ele><time>2026-03-28T09:47:27.501Z</time></trkpt><trkpt lat="36.9646081" lon="15.0446246"><ele>398.57142857142856</ele><time>2026-03-28T09:47:28.501Z</time></trkpt><trkpt lat="36.9645658" lon="15.0445421"><ele>398.0</ele><time>2026-03-28T09:47:29.5Z</time></trkpt><trkpt lat="36.9645203" lon="15.0444557"><ele>397.99999999999994</ele><time>2026-03-28T09:47:30.501Z</time></trkpt><trkpt lat="36.9644758" lon="15.0443744"><ele>398.0</ele><time>2026-03-28T09:47:31.5Z</time></trkpt><trkpt lat="36.9644223" lon="15.0443061"><ele>398.0</ele><time>2026-03-28T09:47:32.501Z</time></trkpt><trkpt lat="36.9643634" lon="15.0442341"><ele>398.0</ele><time>2026-03-28T09:47:33.501Z</time></trkpt><trkpt lat="36.964309" lon="15.0441695"><ele>397.99999999999994</ele><time>2026-03-28T09:47:34.502Z</time></trkpt><trkpt lat="36.9642581" lon="15.0441038"><ele>398.0</ele><time>2026-03-28T09:47:35.5Z</time></trkpt><trkpt lat="36.9642141" lon="15.0440287"><ele>396.99999999999994</ele><time>2026-03-28T09:47:36.502Z</time></trkpt><trkpt lat="36.9641833" lon="15.043954"><ele>396.0</ele><time>2026-03-28T09:47:37.501Z</time></trkpt><trkpt lat="36.9641026" lon="15.0438392"><ele>395.0</ele><time>2026-03-28T09:47:39.501Z</time></trkpt><trkpt lat="36.9640425" lon="15.0437818"><ele>394.0</ele><time>2026-03-28T09:47:40.501Z</time></trkpt><trkpt lat="36.963983" lon="15.0437339"><ele>392.99999999999994</ele><time>2026-03-28T09:47:41.501Z</time></trkpt><trkpt lat="36.9639223" lon="15.0436725"><ele>392.0</ele><time>2026-03-28T09:47:42.501Z</time></trkpt><trkpt lat="36.9638713" lon="15.0436086"><ele>392.0</ele><time>2026-03-28T09:47:43.501Z</time></trkpt><trkpt lat="36.9638252" lon="15.0435221"><ele>392.0</ele><time>2026-03-28T09:47:44.501Z</time></trkpt><trkpt lat="36.963787" lon="15.0434165"><ele>392.0</ele><time>2026-03-28T09:47:45.502Z</time></trkpt><trkpt lat="36.9637569" lon="15.0433002"><ele>392.0</ele><time>2026-03-28T09:47:46.501Z</time></trkpt><trkpt lat="36.9637383" lon="15.0431978"><ele>392.0</ele><time>2026-03-28T09:47:47.501Z</time></trkpt><trkpt lat="36.9637333" lon="15.0430657"><ele>391.8</ele><time>2026-03-28T09:47:48.501Z</time></trkpt><trkpt lat="36.9637341" lon="15.0429167"><ele>391.6</ele><time>2026-03-28T09:47:49.501Z</time></trkpt><trkpt lat="36.9637345" lon="15.0427938"><ele>391.40000000000003</ele><time>2026-03-28T09:47:50.5Z</time></trkpt><trkpt lat="36.9637363" lon="15.0426588"><ele>391.20000000000005</ele><time>2026-03-28T09:47:51.502Z</time></trkpt><trkpt lat="36.9637223" lon="15.0425221"><ele>391.0</ele><time>2026-03-28T09:47:52.501Z</time></trkpt><trkpt lat="36.9636916" lon="15.0423835"><ele>392.0</ele><time>2026-03-28T09:47:53.501Z</time></trkpt><trkpt lat="36.9636728" lon="15.0422516"><ele>393.0</ele><time>2026-03-28T09:47:54.501Z</time></trkpt><trkpt lat="36.9636626" lon="15.0421211"><ele>394.0</ele><time>2026-03-28T09:47:55.502Z</time></trkpt><trkpt lat="36.9636531" lon="15.041987"><ele>395.0</ele><time>2026-03-28T09:47:56.501Z</time></trkpt><trkpt lat="36.9636437" lon="15.041849"><ele>396.0</ele><time>2026-03-28T09:47:57.501Z</time></trkpt><trkpt lat="36.9636317" lon="15.0417142"><ele>397.20000000000005</ele><time>2026-03-28T09:47:58.501Z</time></trkpt><trkpt lat="36.9636039" lon="15.0415818"><ele>398.40000000000003</ele><time>2026-03-28T09:47:59.501Z</time></trkpt><trkpt lat="36.9635799" lon="15.0414498"><ele>399.6</ele><time>2026-03-28T09:48:00.5Z</time></trkpt><trkpt lat="36.9635643" lon="15.0413188"><ele>400.8</ele><time>2026-03-28T09:48:01.501Z</time></trkpt><trkpt lat="36.9635508" lon="15.0411862"><ele>402.0</ele><time>2026-03-28T09:48:02.5Z</time></trkpt><trkpt lat="36.9635367" lon="15.0410529"><ele>402.0</ele><time>2026-03-28T09:48:03.5Z</time></trkpt><trkpt lat="36.9635248" lon="15.040929"><ele>402.0</ele><time>2026-03-28T09:48:04.501Z</time></trkpt><trkpt lat="36.9635171" lon="15.0408002"><ele>402.0</ele><time>2026-03-28T09:48:05.502Z</time></trkpt><trkpt lat="36.9635116" lon="15.0406685"><ele>402.0</ele><time>2026-03-28T09:48:06.501Z</time></trkpt><trkpt lat="36.9635054" lon="15.0405458"><ele>402.0</ele><time>2026-03-28T09:48:07.502Z</time></trkpt><trkpt lat="36.9634939" lon="15.0404105"><ele>403.0</ele><time>2026-03-28T09:48:08.501Z</time></trkpt><trkpt lat="36.963483" lon="15.0402918"><ele>404.0</ele><time>2026-03-28T09:48:09.501Z</time></trkpt><trkpt lat="36.9634727" lon="15.0401583"><ele>405.0</ele><time>2026-03-28T09:48:10.501Z</time></trkpt><trkpt lat="36.9634603" lon="15.0400284"><ele>406.0</ele><time>2026-03-28T09:48:11.502Z</time></trkpt><trkpt lat="36.9634462" lon="15.039918"><ele>407.0</ele><time>2026-03-28T09:48:12.501Z</time></trkpt><trkpt lat="36.9634263" lon="15.0398112"><ele>407.6</ele><time>2026-03-28T09:48:13.502Z</time></trkpt><trkpt lat="36.9634046" lon="15.0397006"><ele>408.20000000000005</ele><time>2026-03-28T09:48:14.501Z</time></trkpt><trkpt lat="36.9633894" lon="15.0395911"><ele>408.8</ele><time>2026-03-28T09:48:15.501Z</time></trkpt><trkpt lat="36.9633848" lon="15.0394801"><ele>409.4</ele><time>2026-03-28T09:48:16.501Z</time></trkpt><trkpt lat="36.9633797" lon="15.0393632"><ele>410.0</ele><time>2026-03-28T09:48:17.501Z</time></trkpt><trkpt lat="36.9633738" lon="15.0392417"><ele>409.99999999999994</ele><time>2026-03-28T09:48:18.502Z</time></trkpt><trkpt lat="36.9633678" lon="15.0391362"><ele>410.0</ele><time>2026-03-28T09:48:19.501Z</time></trkpt><trkpt lat="36.9633603" lon="15.0390373"><ele>410.0</ele><time>2026-03-28T09:48:20.502Z</time></trkpt><trkpt lat="36.9633609" lon="15.0389406"><ele>410.0</ele><time>2026-03-28T09:48:21.501Z</time></trkpt><trkpt lat="36.9633521" lon="15.0388383"><ele>409.99999999999994</ele><time>2026-03-28T09:48:22.502Z</time></trkpt><trkpt lat="36.963314" lon="15.0387267"><ele>410.0</ele><time>2026-03-28T09:48:23.501Z</time></trkpt><trkpt lat="36.963249" lon="15.03861"><ele>410.0</ele><time>2026-03-28T09:48:24.501Z</time></trkpt><trkpt lat="36.9631585" lon="15.0384902"><ele>410.0</ele><time>2026-03-28T09:48:25.501Z</time></trkpt><trkpt lat="36.9630541" lon="15.0383778"><ele>410.0</ele><time>2026-03-28T09:48:26.501Z</time></trkpt><trkpt lat="36.9629557" lon="15.0382967"><ele>410.0</ele><time>2026-03-28T09:48:27.501Z</time></trkpt><trkpt lat="36.9628609" lon="15.0382066"><ele>411.6</ele><time>2026-03-28T09:48:28.501Z</time></trkpt><trkpt lat="36.9627779" lon="15.0380966"><ele>413.2</ele><time>2026-03-28T09:48:29.502Z</time></trkpt><trkpt lat="36.9627168" lon="15.0379843"><ele>414.79999999999995</ele><time>2026-03-28T09:48:30.501Z</time></trkpt><trkpt lat="36.962677" lon="15.0378768"><ele>416.4</ele><time>2026-03-28T09:48:31.501Z</time></trkpt><trkpt lat="36.9626474" lon="15.0377789"><ele>418.0</ele><time>2026-03-28T09:48:32.501Z</time></trkpt><trkpt lat="36.9626213" lon="15.0376999"><ele>418.0</ele><time>2026-03-28T09:48:33.501Z</time></trkpt><trkpt lat="36.9625779" lon="15.0375571"><ele>418.0</ele><time>2026-03-28T09:48:35.501Z</time></trkpt><trkpt lat="36.9625115" lon="15.0374449"><ele>413.0</ele><time>2026-03-28T09:48:37.501Z</time></trkpt><trkpt lat="36.962451" lon="15.0373494"><ele>413.0</ele><time>2026-03-28T09:48:39.501Z</time></trkpt><trkpt lat="36.9624089" lon="15.0372895"><ele>413.0</ele><time>2026-03-28T09:48:43.502Z</time></trkpt></trkseg></trk></gpx>